Flight Track Log - Related Links

Times and Time Zones

All times are in EST time to prevent confusion due to time zone crossing. See the AFL150 flight status page for this flight to view local times or setup timezone preferences in your user account.

Time Position Orientation Groundspeed Altitude Reporting Facility
EST Latitude Longitude Course Direction KTS MPH feet Rate Location/Type
Tue 04:38:10 AM 55.9720 37.4220 331° Northwest 135 155  Level FlightAware ADS-B
Tue 04:38:42 AM 55.9660 37.3770 257° West 179 206 900 2,029 Climbing FlightAware ADS-B
Tue 04:39:18 AM 55.9580 37.3280 254° West 176 203 2,300 1,917 Climbing FlightAware ADS-B
Tue 04:39:54 AM 55.9510 37.2770 256° West 181 208 3,200 1,130 Climbing FlightAware ADS-B
Tue 04:40:27 AM 55.9440 37.2200 258° West 219 252 3,600 857 Climbing FlightAware ADS-B
Tue 04:40:57 AM 55.9480 37.1650 277° West 252 290 4,100 1,818 Climbing FlightAware ADS-B
Tue 04:41:33 AM 55.9610 37.0920 288° West 260 299 5,600 2,571 Climbing FlightAware ADS-B
Tue 04:42:07 AM 55.9960 37.0510 327° Northwest 264 304 7,100 2,531 Climbing FlightAware ADS-B
Tue 04:42:37 AM 56.0260 37.0160 327° Northwest 266 306 8,300 2,250 Climbing FlightAware ADS-B
Tue 04:43:11 AM 56.0620 36.9750 328° Northwest 277 319 9,500 1,950 Climbing FlightAware ADS-B
Tue 04:43:57 AM 56.1110 36.9180 327° Northwest 300 345 10,900 1,461 Climbing FlightAware ADS-B
Tue 04:45:06 AM 56.2010 36.8110 327° Northwest 356 410 12,300 1,431 Climbing FlightAware ADS-B
Tue 04:45:46 AM 56.2560 36.7470 327° Northwest 371 427 13,500 1,958 Climbing FlightAware ADS-B
Tue 04:46:41 AM 56.3350 36.6530 327° Northwest 383 441 15,400 1,868 Climbing FlightAware ADS-B
Tue 04:47:32 AM 56.4160 36.5570 327° Northwest 402 463 16,800 1,912 Climbing FlightAware ADS-B
Tue 04:48:12 AM 56.4770 36.4840 327° Northwest 399 459 18,300 2,240 Climbing FlightAware ADS-B
Tue 04:48:47 AM 56.5310 36.4200 327° Northwest 399 459 19,600 2,143 Climbing FlightAware ADS-B
Tue 04:49:22 AM 56.5850 36.3540 326° Northwest 398 458 20,800 1,606 Climbing FlightAware ADS-B
Tue 04:49:58 AM 56.6400 36.2870 326° Northwest 413 475 21,500 1,606 Climbing FlightAware ADS-B
Tue 04:50:33 AM 56.6950 36.2210 327° Northwest 408 470 22,700 1,971 Climbing FlightAware ADS-B
Tue 04:51:08 AM 56.7510 36.1520 326° Northwest 407 468 23,800 1,754 Climbing FlightAware ADS-B
Tue 04:51:38 AM 56.7960 36.0980 327° Northwest 409 471 24,600 1,543 Climbing FlightAware ADS-B
Tue 04:52:18 AM 56.8610 36.0180 326° Northwest 410 472 25,600 1,500 Climbing FlightAware ADS-B
Tue 04:52:58 AM 56.9250 35.9400 326° Northwest 411 473 26,600 1,425 Climbing FlightAware ADS-B
Tue 04:53:38 AM 56.9860 35.8640 326° Northwest 411 473 27,500 1,275 Climbing FlightAware ADS-B
Tue 04:54:18 AM 57.0490 35.7860 326° Northwest 414 476 28,300 1,200 Climbing FlightAware ADS-B
Tue 04:54:48 AM 57.0940 35.7300 326° Northwest 414 476 28,900 1,183 Climbing FlightAware ADS-B
Tue 04:55:29 AM 57.1620 35.6460 326° Northwest 414 476 29,700 1,275 Climbing FlightAware ADS-B
Tue 04:56:08 AM 57.2240 35.5670 325° Northwest 410 472 30,600 1,212 Climbing FlightAware ADS-B
Tue 04:57:08 AM 57.3180 35.4490 326° Northwest 410 472 31,700 1,011 Climbing FlightAware ADS-B
Tue 04:57:43 AM 57.3700 35.3820 325° Northwest 408 470 32,200 943 Climbing FlightAware ADS-B
Tue 04:58:18 AM 57.4260 35.3110 326° Northwest 407 468 32,800 1,040 Climbing FlightAware ADS-B
Tue 04:58:58 AM 57.4840 35.2370 326° Northwest 405 466 33,500 1,011 Climbing FlightAware ADS-B
Tue 04:59:53 AM 57.5730 35.1230 326° Northwest 401 461 34,400 857 Climbing FlightAware ADS-B
Tue 05:00:43 AM 57.6410 35.0350 325° Northwest 400 460 35,000 709 Climbing FlightAware ADS-B
Tue 05:01:43 AM 57.7350 34.9130 325° Northwest 399 459 35,700 545 Climbing FlightAware ADS-B
Tue 05:02:22 AM 57.7980 34.8310 325° Northwest 402 463 35,900 182 Climbing FlightAware ADS-B
Tue 05:03:22 AM 57.8910 34.7080 325° Northwest 415 478 36,000 56 Climbing FlightAware ADS-B
Tue 05:04:10 AM 57.9670 34.6090 325° Northwest 419 482 36,000  Level FlightAware ADS-B
Tue 05:04:50 AM 58.0260 34.5300 325° Northwest 418 481 36,000  Level FlightAware ADS-B
Tue 05:05:22 AM 58.0790 34.4600 325° Northwest 419 482 36,000  Level FlightAware ADS-B
Tue 05:06:07 AM 58.1450 34.3710 325° Northwest 418 481 36,000  Level FlightAware ADS-B
Tue 05:06:35 AM 58.1910 34.3000 321° Northwest 417 480 36,000  Level FlightAware ADS-B
Tue 05:07:04 AM 58.2300 34.2410 321° Northwest 416 479 36,000  Level FlightAware ADS-B
Tue 05:07:39 AM 58.2820 34.1630 322° Northwest 417 480 36,000  Level FlightAware ADS-B
Tue 05:08:07 AM 58.3280 34.0940 322° Northwest 418 481 36,000  Level FlightAware ADS-B
Tue 05:08:51 AM 58.3910 33.9970 321° Northwest 422 486 36,000  Level FlightAware ADS-B
Tue 05:09:36 AM 58.4640 33.8850 321° Northwest 422 486 36,000  Level FlightAware ADS-B
Tue 05:10:21 AM 58.5270 33.7870 321° Northwest 422 486 36,000  Level FlightAware ADS-B
Tue 05:10:56 AM 58.5840 33.6980 321° Northwest 420 483 36,000  Level FlightAware ADS-B
Tue 05:11:37 AM 58.6470 33.6000 321° Northwest 417 480 36,000  Level FlightAware ADS-B
Tue 05:12:11 AM 58.6950 33.5250 321° Northwest 412 474 36,000  Level FlightAware ADS-B
Tue 05:13:02 AM 58.7680 33.3950 317° Northwest 403 464 36,000  Level FlightAware ADS-B
Tue 05:13:42 AM 58.8150 33.3060 316° Northwest 399 459 36,000  Level FlightAware ADS-B
Tue 05:14:12 AM 58.8560 33.2280 315° West 398 458 36,000  Level FlightAware ADS-B
Tue 05:14:42 AM 58.8970 33.1490 315° West 398 458 36,000  Level FlightAware ADS-B
Tue 05:15:23 AM 58.9480 33.0500 315° West 396 456 36,000  Level FlightAware ADS-B
Tue 05:15:52 AM 58.9840 32.9800 315° West 395 455 36,000  Level FlightAware ADS-B
Tue 05:16:28 AM 59.0310 32.8880 315° West 393 452 36,000  Level FlightAware ADS-B
Tue 05:17:04 AM 59.0790 32.7930 315° West 392 451 36,000  Level FlightAware ADS-B
Tue 05:17:35 AM 59.1130 32.7260 315° West 391 450 36,000  Level FlightAware ADS-B
Tue 05:18:40 AM 59.2000 32.5530 315° West 392 451 36,000  Level FlightAware ADS-B
Tue 05:19:16 AM 59.2450 32.4630 314° West 392 451 36,000  Level FlightAware ADS-B
Tue 05:19:53 AM 59.2880 32.3770 314° West 393 452 36,000  Level FlightAware ADS-B
Tue 05:20:35 AM 59.3440 32.2620 314° West 394 453 36,000  Level FlightAware ADS-B
Tue 05:21:05 AM 59.3820 32.1870 315° West 395 455 36,000  Level FlightAware ADS-B
Tue 05:22:05 AM 59.4490 32.0220 309° West 394 453 36,000  Level FlightAware ADS-B
Tue 05:22:41 AM 59.4800 31.9070 298° West 395 455 36,000  Level FlightAware ADS-B
Tue 05:23:17 AM 59.5070 31.7870 294° West 396 456 36,000  Level FlightAware ADS-B
Tue 05:23:47 AM 59.5260 31.7000 293° West 395 455 36,000  Level FlightAware ADS-B
Tue 05:24:27 AM 59.5570 31.5570 293° West 394 453 36,000  Level FlightAware ADS-B
Tue 05:25:02 AM 59.5820 31.4390 293° West 395 455 36,000  Level FlightAware ADS-B
Tue 05:25:40 AM 59.6100 31.3100 293° West 394 453 36,000  Level FlightAware ADS-B
Tue 05:26:20 AM 59.6350 31.1950 293° West 395 455 36,000  Level FlightAware ADS-B
Tue 05:26:55 AM 59.6610 31.0700 292° West 394 453 36,000  Level FlightAware ADS-B
Tue 05:27:30 AM 59.6870 30.9480 293° West 392 451 36,000  Level FlightAware ADS-B
Tue 05:28:05 AM 59.7110 30.8350 293° West 391 450 36,000  Level FlightAware ADS-B
Tue 05:28:46 AM 59.7380 30.7050 292° West 391 450 36,000  Level FlightAware ADS-B
Tue 05:29:25 AM 59.7620 30.5710 290° West 391 450 36,000  Level FlightAware ADS-B
Tue 05:30:15 AM 59.7840 30.3990 284° West 393 452 36,000  Level FlightAware ADS-B
Tue 05:30:47 AM 59.7900 30.2920 276° West 395 455 36,000  Level FlightAware ADS-B
Tue 05:31:55 AM 59.7780 30.0400 265° West 403 464 36,000  Level FlightAware ADS-B
Tue 05:32:30 AM 59.7610 29.9070 256° West 404 465 36,000  Level FlightAware ADS-B
Tue 05:33:10 AM 59.7440 29.7680 256° West 404 465 36,000  Level FlightAware ADS-B
Tue 05:33:45 AM 59.7280 29.6420 256° West 403 464 36,000  Level FlightAware ADS-B
Tue 05:34:25 AM 59.7100 29.5050 255° West 401 461 36,000  Level FlightAware ADS-B
Tue 05:35:00 AM 59.6940 29.3790 256° West 401 461 36,000  Level FlightAware ADS-B
Tue 05:35:40 AM 59.6750 29.2370 255° West 402 463 36,000  Level FlightAware ADS-B
Tue 05:36:30 AM 59.6510 29.0530 256° West 403 464 36,000  Level FlightAware ADS-B
Tue 05:37:10 AM 59.6350 28.9130 257° West 400 460 36,000  Level FlightAware ADS-B
Tue 05:37:40 AM 59.6300 28.8050 265° West 397 457 36,000  Level FlightAware ADS-B
Tue 05:38:15 AM 59.6330 28.6810 273° West 395 455 36,000  Level FlightAware ADS-B
Tue 05:38:50 AM 59.6450 28.5530 281° West 393 452 36,000  Level FlightAware ADS-B
Tue 05:39:24 AM 59.6620 28.4390 286° West 393 452 36,000  Level FlightAware ADS-B
Tue 05:40:05 AM 59.6810 28.3090 286° West 393 452 36,000  Level FlightAware ADS-B
Tue 05:40:40 AM 59.7000 28.1760 286° West 393 452 36,000  Level FlightAware ADS-B
Tue 05:41:27 AM 59.7230 28.0110 286° West 393 452 36,000  Level FlightAware ADS-B
Tue 05:42:03 AM 59.7410 27.8840 286° West 393 452 36,000  Level FlightAware ADS-B
Tue 05:43:08 AM 59.7720 27.6590 285° West 393 452 36,000  Level FlightAware ADS-B
Tue 05:43:43 AM 59.7890 27.5400 286° West 391 450 36,000  Level FlightAware ADS-B
Tue 05:44:24 AM 59.8080 27.3980 285° West 392 451 36,000  Level FlightAware ADS-B
Tue 05:44:59 AM 59.8240 27.2770 285° West 391 450 36,000  Level FlightAware ADS-B
Tue 05:45:25 AM 59.8370 27.1820 285° West 391 450 36,000  Level FlightAware ADS-B
Tue 05:46:11 AM 59.8580 27.0220 285° West 392 451 36,000  Level FlightAware ADS-B
Tue 05:46:52 AM 59.8760 26.8860 285° West 392 451 36,000  Level FlightAware ADS-B
Tue 05:47:28 AM 59.8930 26.7570 285° West 393 452 36,000  Level FlightAware ADS-B
Tue 05:48:08 AM 59.9100 26.6230 284° West 393 452 36,000  Level FlightAware ADS-B
Tue 05:48:44 AM 59.9270 26.4900 284° West 394 453 36,000  Level FlightAware ADS-B
Tue 05:49:29 AM 59.9490 26.3330 286° West 395 455 36,000  Level FlightAware ADS-B
Tue 05:50:08 AM 59.9770 26.2020 293° West 398 458 36,000  Level FlightAware ADS-B
Tue 05:51:01 AM 60.0300 26.0420 304° West 404 465 36,000  Level FlightAware ADS-B
Tue 05:51:57 AM 60.1060 25.8920 316° Northwest 412 474 36,000  Level FlightAware ADS-B
Tue 05:52:36 AM 60.1640 25.8020 322° Northwest 410 472 36,000  Level FlightAware ADS-B
Tue 05:53:13 AM 60.2120 25.7050 315° West 400 460 36,000  Level FlightAware ADS-B
Tue 05:54:09 AM 60.2710 25.5320 305° West 392 451 36,000  Level FlightAware ADS-B
Tue 05:54:52 AM 60.3010 25.3920 293° West 388 447 36,000  Level FlightAware ADS-B
Tue 05:55:30 AM 60.3220 25.2670 289° West 389 448 36,000  Level FlightAware ADS-B
Tue 05:56:02 AM 60.3430 25.1530 290° West 391 450 36,000  Level FlightAware ADS-B
Tue 05:56:45 AM 60.3790 25.0140 298° West 394 453 36,000  Level FlightAware ADS-B
Tue 05:57:27 AM 60.4240 24.8910 307° West 397 457 36,000  Level FlightAware ADS-B
Tue 05:58:38 AM 60.5210 24.7180 319° Northwest 404 465 36,000  Level FlightAware ADS-B
Tue 05:59:14 AM 60.5800 24.6460 329° Northwest 409 471 36,000  Level FlightAware ADS-B
Tue 05:59:45 AM 60.6300 24.5880 330° Northwest 406 467 36,000  Level FlightAware ADS-B
Tue 06:00:28 AM 60.7000 24.5020 329° Northwest 406 467 36,000  Level FlightAware ADS-B
Tue 06:01:25 AM 60.7930 24.3830 328° Northwest 410 472 36,000  Level FlightAware ADS-B
Tue 06:02:10 AM 60.8630 24.2940 328° Northwest 412 474 36,000  Level FlightAware ADS-B
Tue 06:02:43 AM 60.9160 24.2260 328° Northwest 415 478 36,000  Level FlightAware ADS-B
Tue 06:03:22 AM 60.9790 24.1450 328° Northwest 418 481 36,000  Level FlightAware ADS-B
Tue 06:03:59 AM 61.0390 24.0670 328° Northwest 419 482 36,000  Level FlightAware ADS-B
Tue 06:04:31 AM 61.0920 23.9980 328° Northwest 419 482 36,000  Level FlightAware ADS-B
Tue 06:05:10 AM 61.1560 23.9150 328° Northwest 419 482 36,000  Level FlightAware ADS-B
Tue 06:05:47 AM 61.2170 23.8350 328° Northwest 420 483 36,000  Level FlightAware ADS-B
Tue 06:06:24 AM 61.2780 23.7530 327° Northwest 423 487 36,000  Level FlightAware ADS-B
Tue 06:07:04 AM 61.3460 23.6630 328° Northwest 427 491 36,000  Level FlightAware ADS-B
Tue 06:07:31 AM 61.3890 23.6060 328° Northwest 428 493 36,000  Level FlightAware ADS-B
Tue 06:08:16 AM 61.4670 23.5140 331° Northwest 435 501 36,000  Level FlightAware ADS-B
Tue 06:09:23 AM 61.5910 23.3870 334° Northwest 432 497 36,000  Level FlightAware ADS-B
Tue 06:09:52 AM 61.6410 23.3350 334° Northwest 432 497 36,000  Level FlightAware ADS-B
Tue 06:10:37 AM 61.7190 23.2510 333° Northwest 432 497 36,000  Level FlightAware ADS-B
Tue 06:11:16 AM 61.7910 23.1740 333° Northwest 432 497 36,000  Level FlightAware ADS-B
Tue 06:11:38 AM 61.8280 23.1340 333° Northwest 431 496 36,000  Level FlightAware ADS-B
Tue 06:12:29 AM 61.9180 23.0370 333° Northwest 431 496 36,000  Level FlightAware ADS-B
Tue 06:12:55 AM 61.9630 22.9880 333° Northwest 431 496 36,000  Level FlightAware ADS-B
Tue 06:13:30 AM 62.0270 22.9180 333° Northwest 430 495 36,000  Level FlightAware ADS-B
Tue 06:14:36 AM 62.1440 22.7900 333° Northwest 428 493 36,000  Level FlightAware ADS-B
Tue 06:15:06 AM 62.1940 22.7350 333° Northwest 426 490 36,000  Level FlightAware ADS-B
Tue 06:16:15 AM 62.2960 22.6180 332° Northwest 416 479 36,000  Level FlightAware ADS-B
Tue 06:16:47 AM 62.3440 22.5320 320° Northwest 402 463 36,000  Level FlightAware ADS-B
Tue 06:17:43 AM 62.4240 22.3860 320° Northwest 404 465 36,000  Level FlightAware ADS-B
Tue 06:18:13 AM 62.4690 22.3050 320° Northwest 404 465 36,000  Level FlightAware ADS-B
Tue 06:18:54 AM 62.5330 22.1870 320° Northwest 406 467 36,000  Level FlightAware ADS-B
Tue 06:19:26 AM 62.5830 22.0950 320° Northwest 408 470 36,000  Level FlightAware ADS-B
Tue 06:20:26 AM 62.6700 21.9340 320° Northwest 409 471 36,000  Level FlightAware ADS-B
Tue 06:21:02 AM 62.7200 21.8410 320° Northwest 410 472 36,000  Level FlightAware ADS-B
Tue 06:21:31 AM 62.7630 21.7590 319° Northwest 411 473 36,000  Level FlightAware ADS-B
Tue 06:22:02 AM 62.8070 21.6780 320° Northwest 412 474 36,000  Level FlightAware ADS-B
Tue 06:22:45 AM 62.8700 21.5580 319° Northwest 414 476 36,000  Level FlightAware ADS-B
Tue 06:23:18 AM 62.9160 21.4700 319° Northwest 416 479 36,000  Level FlightAware ADS-B
Tue 06:24:08 AM 62.9890 21.3300 319° Northwest 421 484 36,000  Level FlightAware ADS-B
Tue 06:24:46 AM 63.0440 21.2260 319° Northwest 424 488 36,000  Level FlightAware ADS-B
Tue 06:25:17 AM 63.0910 21.1360 319° Northwest 425 489 36,000  Level FlightAware ADS-B
Tue 06:26:20 AM 63.1840 20.9550 319° Northwest 429 494 36,000  Level FlightAware ADS-B
Tue 06:26:59 AM 63.2420 20.8400 318° Northwest 431 496 36,000  Level FlightAware ADS-B
Tue 06:27:43 AM 63.3060 20.7150 319° Northwest 432 497 36,000  Level FlightAware ADS-B
Tue 06:28:51 AM 63.4110 20.5070 318° Northwest 430 495 36,000  Level FlightAware ADS-B
Tue 06:29:17 AM 63.4490 20.4300 318° Northwest 430 495 36,000  Level FlightAware ADS-B
Tue 06:29:54 AM 63.5040 20.3210 319° Northwest 431 496 36,000  Level FlightAware ADS-B
Tue 06:30:27 AM 63.5520 20.2240 318° Northwest 430 495 36,000  Level FlightAware ADS-B
Tue 06:30:57 AM 63.5950 20.1370 318° Northwest 429 494 36,000  Level FlightAware ADS-B
Tue 06:31:26 AM 63.6380 20.0480 317° Northwest 430 495 36,000  Level FlightAware ADS-B
Tue 06:31:48 AM 63.6680 19.9880 318° Northwest 430 495 36,000  Level FlightAware ADS-B
Tue 06:32:58 AM 63.7730 19.7700 318° Northwest 431 496 36,000  Level FlightAware ADS-B
Tue 06:33:38 AM 63.8340 19.6450 318° Northwest 433 498 36,000  Level FlightAware ADS-B
Tue 06:34:22 AM 63.8970 19.5130 317° Northwest 434 499 36,000  Level FlightAware ADS-B
Tue 06:35:05 AM 63.9580 19.3840 317° Northwest 437 503 36,000  Level FlightAware ADS-B
Tue 06:35:43 AM 64.0170 19.2600 317° Northwest 438 504 36,000  Level FlightAware ADS-B
Tue 06:36:25 AM 64.0800 19.1270 317° Northwest 437 503 36,000  Level FlightAware ADS-B
Tue 06:36:55 AM 64.1240 19.0320 317° Northwest 438 504 36,000  Level FlightAware ADS-B
Tue 06:37:33 AM 64.1780 18.9160 317° Northwest 438 504 36,000  Level FlightAware ADS-B
Tue 06:38:09 AM 64.2330 18.7970 317° Northwest 438 504 36,000  Level FlightAware ADS-B
Tue 06:38:51 AM 64.2950 18.6630 317° Northwest 439 505 36,000  Level FlightAware ADS-B
Tue 06:39:35 AM 64.3580 18.5230 316° Northwest 442 509 36,000  Level FlightAware ADS-B
Tue 06:40:43 AM 64.4600 18.3000 317° Northwest 444 511 36,000  Level FlightAware ADS-B
Tue 06:41:15 AM 64.5060 18.1970 316° Northwest 442 509 36,000  Level FlightAware ADS-B
Tue 06:41:47 AM 64.5530 18.0920 316° Northwest 442 509 36,000  Level FlightAware ADS-B
Tue 06:42:25 AM 64.6090 17.9660 316° Northwest 442 509 36,000  Level FlightAware ADS-B
Tue 06:43:07 AM 64.6700 17.8290 316° Northwest 435 501 36,000  Level FlightAware ADS-B
Tue 06:43:42 AM 64.7200 17.7150 316° Northwest 429 494 36,000  Level FlightAware ADS-B
Tue 06:44:16 AM 64.7680 17.6050 316° Northwest 430 495 36,000  Level FlightAware ADS-B
Tue 06:44:57 AM 64.8230 17.4760 315° West 430 495 36,000  Level FlightAware ADS-B
Tue 06:45:37 AM 64.8840 17.3360 316° Northwest 434 499 36,000  Level FlightAware ADS-B
Tue 06:46:07 AM 64.9270 17.2350 315° West 432 497 36,000  Level FlightAware ADS-B
Tue 06:47:07 AM 65.0120 17.0370 316° Northwest 435 501 36,000  Level FlightAware ADS-B
Tue 06:47:37 AM 65.0520 16.9410 315° West 437 503 36,000  Level FlightAware ADS-B
Tue 06:48:07 AM 65.0970 16.8340 315° West 436 502 36,000  Level FlightAware ADS-B
Tue 06:48:37 AM 65.1400 16.7330 315° West 438 504 36,000  Level FlightAware ADS-B
Tue 06:49:17 AM 65.1970 16.5950 315° West 440 506 36,000  Level FlightAware ADS-B
Tue 06:49:42 AM 65.2320 16.5100 315° West 433 498 36,000  Level FlightAware ADS-B
Tue 06:50:42 AM 65.3160 16.3070 315° West 425 489 36,000  Level FlightAware ADS-B
Tue 06:51:37 AM 65.3920 16.1190 314° West 438 504 36,000  Level FlightAware ADS-B
Tue 06:52:02 AM 65.4290 16.0290 315° West 442 509 36,000  Level FlightAware ADS-B
Tue 06:52:42 AM 65.4850 15.8900 314° West 437 503 36,000  Level FlightAware ADS-B
Tue 06:53:22 AM 65.5410 15.7510 314° West 425 489 36,000  Level FlightAware ADS-B
Tue 06:54:02 AM 65.5950 15.6130 313° West 422 486 36,000  Level FlightAware ADS-B
Tue 06:54:42 AM 65.6500 15.4750 314° West 425 489 36,000  Level FlightAware ADS-B
Tue 06:55:13 AM 65.6910 15.3710 314° West 427 491 36,000  Level FlightAware ADS-B
Tue 06:55:51 AM 65.7440 15.2360 314° West 425 489 36,000  Level FlightAware ADS-B
Tue 06:56:27 AM 65.7910 15.1150 313° West 426 490 36,000  Level FlightAware ADS-B
Tue 06:57:32 AM 65.8780 14.8890 313° West 430 495 36,000  Level FlightAware ADS-B
Tue 06:58:12 AM 65.9340 14.7420 313° West 426 490 36,000  Level FlightAware ADS-B
Tue 06:58:57 AM 65.9930 14.5860 313° West 430 495 36,000  Level FlightAware ADS-B
Tue 06:59:37 AM 66.0480 14.4390 313° West 432 497 36,000  Level FlightAware ADS-B
Tue 07:00:14 AM 66.0950 14.3130 313° West 434 499 36,000  Level FlightAware ADS-B
Tue 07:00:52 AM 66.1490 14.1680 313° West 430 495 36,000  Level FlightAware ADS-B
Tue 07:01:27 AM 66.1980 14.0370 313° West 435 501 36,000  Level FlightAware ADS-B
Tue 07:02:17 AM 66.2650 13.8520 312° West 439 505 36,000  Level FlightAware ADS-B
Tue 07:03:22 AM 66.3540 13.6080 312° West 437 503 36,000  Level FlightAware ADS-B
Tue 07:04:07 AM 66.4160 13.4360 312° West 438 504 36,000  Level FlightAware ADS-B
Tue 07:04:42 AM 66.4630 13.3040 312° West 438 504 36,000  Level FlightAware ADS-B
Tue 07:05:32 AM 66.5300 13.1140 312° West 441 507 36,000  Level FlightAware ADS-B
Tue 07:06:02 AM 66.5720 12.9940 311° West 442 509 36,000  Level FlightAware ADS-B
Tue 07:06:33 AM 66.6130 12.8790 312° West 442 509 36,000  Level FlightAware ADS-B
Tue 07:07:06 AM 66.6600 12.7440 311° West 442 509 36,000  Level FlightAware ADS-B
Tue 07:07:37 AM 66.6990 12.6300 311° West 448 516 36,000  Level FlightAware ADS-B
Tue 07:08:12 AM 66.7450 12.4970 311° West 444 511 36,000  Level FlightAware ADS-B
Tue 07:08:33 AM 66.7660 12.4340 310° West 451 519 36,000  Level FlightAware ADS-B
Tue 07:09:31 AM 66.8450 12.2030 311° West 452 520 36,000  Level FlightAware ADS-B
Tue 07:10:33 AM 66.9370 11.9300 311° West 451 519 36,000  Level FlightAware ADS-B
Tue 07:10:54 AM 66.9680 11.8360 310° West 452 520 36,000  Level FlightAware ADS-B
Tue 07:11:38 AM 67.0170 11.6870 310° West 453 521 36,000  Level FlightAware ADS-B
Tue 07:12:41 AM 67.1130 11.3940 310° West 456 525 36,000  Level FlightAware ADS-B
Tue 07:13:17 AM 67.1630 11.2420 310° West 456 525 36,000  Level FlightAware ADS-B
Tue 07:13:54 AM 67.2130 11.0870 310° West 456 525 36,000  Level FlightAware ADS-B
Tue 07:14:29 AM 67.2590 10.9430 310° West 456 525 36,000  Level FlightAware ADS-B
Tue 07:15:10 AM 67.3130 10.7710 309° West 456 525 36,000  Level FlightAware ADS-B
Tue 07:15:57 AM 67.3760 10.5720 310° West 455 524 36,000  Level FlightAware ADS-B
Tue 07:16:22 AM 67.4070 10.4740 309° West 454 522 36,000  Level FlightAware ADS-B
Tue 07:17:11 AM 67.4620 10.2970 309° West 454 522 36,000  Level FlightAware ADS-B
Tue 07:17:35 AM 67.4890 10.2100 309° West 454 522 36,000  Level FlightAware ADS-B
Tue 07:18:11 AM 67.5290 10.0790 309° West 454 522 36,000  Level FlightAware ADS-B
Tue 07:18:47 AM 67.5700 9.9480 309° West 454 522 36,000  Level FlightAware ADS-B
Tue 07:19:35 AM 67.6240 9.7730 309° West 454 522 36,000  Level FlightAware ADS-B
Tue 07:20:11 AM 67.6640 9.6420 309° West 454 522 36,000  Level FlightAware ADS-B
Tue 07:20:35 AM 67.6910 9.5540 309° West 454 522 36,000  Level FlightAware ADS-B
Tue 07:21:12 AM 67.7330 9.4190 309° West 454 522 36,000  Level FlightAware ADS-B
Tue 07:21:48 AM 67.7730 9.2870 309° West 454 522 36,000  Level FlightAware ADS-B
Tue 07:22:25 AM 67.8150 9.1510 309° West 454 522 36,000  Level FlightAware ADS-B
Tue 07:23:01 AM 67.8550 9.0190 309° West 454 522 36,000  Level FlightAware ADS-B
Tue 07:23:37 AM 67.8950 8.8860 309° West 454 522 36,000  Level FlightAware ADS-B
Tue 07:24:13 AM 67.9360 8.7530 309° West 454 522 36,000  Level FlightAware ADS-B
Tue 07:24:49 AM 67.9760 8.6200 309° West 454 522 36,000  Level FlightAware ADS-B
Tue 07:25:37 AM 68.0300 8.4420 309° West 454 522 36,000  Level FlightAware ADS-B
Tue 07:26:01 AM 68.0570 8.3530 309° West 454 522 36,000  Level FlightAware ADS-B
Tue 07:26:13 AM 68.0710 8.3080 310° West 454 522 36,000  Level FlightAware ADS-B
Tue 07:29:00 AM 68.1215 7.4790 280° West  Level Estimated
Tue 07:30:00 AM 68.1386 7.1803 279° West  Level Estimated
Tue 07:31:00 AM 68.1552 6.8811 279° West  Level Estimated
Tue 07:32:00 AM 68.1712 6.5815 278° West  Level Estimated
Tue 07:33:00 AM 68.1867 6.2815 278° West  Level Estimated
Tue 07:34:00 AM 68.2016 5.9812 278° West  Level Estimated
Tue 07:35:00 AM 68.2160 5.6804 277° West  Level Estimated
Tue 07:36:00 AM 68.2299 5.3792 277° West  Level Estimated
Tue 07:37:00 AM 68.2432 5.0777 277° West  Level Estimated
Tue 07:38:00 AM 68.2560 4.7759 277° West  Level Estimated
Tue 07:39:00 AM 68.2682 4.4737 276° West  Level Estimated
Tue 07:40:00 AM 68.2799 4.1712 276° West  Level Estimated
Tue 07:41:00 AM 68.2910 3.8684 276° West  Level Estimated
Tue 07:42:00 AM 68.3016 3.5653 276° West  Level Estimated
Tue 07:43:00 AM 68.3116 3.2619 275° West  Level Estimated
Tue 07:44:00 AM 68.3211 2.9583 275° West  Level Estimated
Tue 07:45:00 AM 68.3300 2.6544 275° West  Level Estimated
Tue 07:46:00 AM 68.3383 2.3503 274° West  Level Estimated
Tue 07:47:00 AM 68.3461 2.0460 274° West  Level Estimated
Tue 07:48:00 AM 68.3534 1.7415 274° West  Level Estimated
Tue 07:49:00 AM 68.3601 1.4368 274° West  Level Estimated
Tue 07:50:00 AM 68.3662 1.1320 273° West  Level Estimated
Tue 07:51:00 AM 68.3718 0.8269 273° West  Level Estimated
Tue 07:52:00 AM 68.3768 0.5218 273° West  Level Estimated
Tue 07:53:00 AM 68.3813 0.2165 272° West  Level Estimated
Tue 07:54:00 AM 68.3852 -0.0890 272° West  Level Estimated
Tue 07:55:00 AM 68.3886 -0.3945 272° West  Level Estimated
Tue 07:56:00 AM 68.3914 -0.7000 272° West  Level Estimated
Tue 07:57:00 AM 68.3936 -1.0057 271° West  Level Estimated
Tue 07:58:00 AM 68.3953 -1.3114 271° West  Level Estimated
Tue 07:59:00 AM 68.3964 -1.6172 271° West  Level Estimated
Tue 08:00:00 AM 68.3970 -1.9230 270° West  Level Estimated
Tue 08:01:00 AM 68.3970 -2.2287 270° West  Level Estimated
Tue 08:02:00 AM 68.3965 -2.5345 270° West  Level Estimated
Tue 08:03:00 AM 68.3954 -2.8403 270° West  Level Estimated
Tue 08:04:00 AM 68.3937 -3.1460 269° West  Level Estimated
Tue 08:05:00 AM 68.3915 -3.4516 269° West  Level Estimated
Tue 08:06:00 AM 68.3887 -3.7572 269° West  Level Estimated
Tue 08:07:00 AM 68.3854 -4.0627 268° West  Level Estimated
Tue 08:08:00 AM 68.3814 -4.3682 268° West  Level Estimated
Tue 08:09:00 AM 68.3770 -4.6735 268° West  Level Estimated
Tue 08:10:00 AM 68.3720 -4.9787 268° West  Level Estimated
Tue 08:11:00 AM 68.3664 -5.2837 267° West  Level Estimated
Tue 08:12:00 AM 68.3603 -5.5886 267° West  Level Estimated
Tue 08:13:00 AM 68.3536 -5.8933 267° West  Level Estimated
Tue 08:14:00 AM 68.3464 -6.1978 266° West  Level Estimated
Tue 08:15:00 AM 68.3386 -6.5021 266° West  Level Estimated
Tue 08:16:00 AM 68.3302 -6.8062 266° West  Level Estimated
Tue 08:17:00 AM 68.3213 -7.1101 266° West  Level Estimated
Tue 08:18:00 AM 68.3119 -7.4137 265° West  Level Estimated
Tue 08:19:00 AM 68.3019 -7.7171 265° West  Level Estimated
Tue 08:20:00 AM 68.2913 -8.0202 265° West  Level Estimated
Tue 08:21:00 AM 68.2802 -8.3230 264° West  Level Estimated
Tue 08:22:00 AM 68.2685 -8.6255 264° West  Level Estimated
Tue 08:23:00 AM 68.2563 -8.9277 264° West  Level Estimated
Tue 08:24:00 AM 68.2436 -9.2295 264° West  Level Estimated
Tue 08:25:00 AM 68.2303 -9.5311 263° West  Level Estimated
Tue 08:26:00 AM 68.2164 -9.8322 263° West  Level Estimated
Tue 08:27:00 AM 68.2020 -10.1330 263° West  Level Estimated
Tue 08:28:00 AM 68.1871 -10.4334 263° West  Level Estimated
Tue 08:29:00 AM 68.1716 -10.7334 262° West  Level Estimated
Tue 08:30:00 AM 68.1556 -11.0330 262° West  Level Estimated
Tue 08:31:00 AM 68.1391 -11.3322 262° West  Level Estimated
Tue 08:32:00 AM 68.1219 -11.6309 261° West  Level Estimated
Tue 08:33:00 AM 68.1043 -11.9292 261° West  Level Estimated
Tue 08:34:00 AM 68.0861 -12.2270 261° West  Level Estimated
Tue 08:35:00 AM 68.0674 -12.5243 261° West  Level Estimated
Tue 08:36:00 AM 68.0482 -12.8212 260° West  Level Estimated
Tue 08:37:00 AM 68.0284 -13.1175 260° West  Level Estimated
Tue 08:38:00 AM 68.0081 -13.4134 260° West  Level Estimated
Tue 08:39:00 AM 67.9873 -13.7087 259° West  Level Estimated
Tue 08:40:00 AM 67.9659 -14.0035 259° West  Level Estimated
Tue 08:41:00 AM 67.9440 -14.2977 259° West  Level Estimated
Tue 08:42:00 AM 67.9216 -14.5913 259° West  Level Estimated
Tue 08:43:00 AM 67.8987 -14.8844 258° West  Level Estimated
Tue 08:44:00 AM 67.8752 -15.1769 258° West  Level Estimated
Tue 08:45:00 AM 67.8512 -15.4689 258° West  Level Estimated
Tue 08:46:00 AM 67.8268 -15.7602 258° West  Level Estimated
Tue 08:47:00 AM 67.8017 -16.0508 257° West  Level Estimated
Tue 08:48:00 AM 67.7762 -16.3409 257° West  Level Estimated
Tue 08:49:00 AM 67.7502 -16.6303 257° West  Level Estimated
Tue 08:50:00 AM 67.7236 -16.9191 256° West  Level Estimated
Tue 08:51:00 AM 67.6966 -17.2072 256° West  Level Estimated
Tue 08:52:00 AM 67.6690 -17.4947 256° West  Level Estimated
Tue 08:53:00 AM 67.6409 -17.7814 256° West  Level Estimated
Tue 08:54:00 AM 67.6123 -18.0675 255° West  Level Estimated
Tue 08:55:00 AM 67.5833 -18.3529 255° West  Level Estimated
Tue 08:56:00 AM 67.5537 -18.6376 255° West  Level Estimated
Tue 08:57:00 AM 67.5236 -18.9215 255° West  Level Estimated
Tue 08:58:00 AM 67.4930 -19.2048 254° West  Level Estimated
Tue 08:59:00 AM 67.4620 -19.4873 254° West  Level Estimated
Tue 09:00:00 AM 67.4304 -19.7690 254° West  Level Estimated
Tue 09:01:00 AM 67.3984 -20.0500 254° West  Level Estimated
Tue 09:02:00 AM 67.3658 -20.3302 253° West  Level Estimated
Tue 09:03:00 AM 67.3328 -20.6097 253° West  Level Estimated
Tue 09:04:00 AM 67.2993 -20.8884 253° West  Level Estimated
Tue 09:05:00 AM 67.2653 -21.1663 253° West  Level Estimated
Tue 09:06:00 AM 67.2308 -21.4435 252° West  Level Estimated
Tue 09:07:00 AM 67.1959 -21.7198 252° West  Level Estimated
Tue 09:08:00 AM 67.1605 -21.9953 252° West  Level Estimated
Tue 09:09:00 AM 67.1246 -22.2700 252° West  Level Estimated
Tue 09:10:00 AM 67.0882 -22.5439 251° West  Level Estimated
Tue 09:11:00 AM 67.0514 -22.8170 251° West  Level Estimated
Tue 09:12:00 AM 67.0141 -23.0892 251° West  Level Estimated
Tue 09:13:00 AM 66.9763 -23.3606 251° West  Level Estimated
Tue 09:14:00 AM 66.9381 -23.6311 250° West  Level Estimated
Tue 09:15:00 AM 66.8994 -23.9008 250° West  Level Estimated
Tue 09:16:00 AM 66.8603 -24.1697 250° West  Level Estimated
Tue 09:17:00 AM 66.8207 -24.4376 250° West  Level Estimated
Tue 09:18:00 AM 66.7807 -24.7047 249° West  Level Estimated
Tue 09:19:00 AM 66.7402 -24.9710 249° West  Level Estimated
Tue 09:20:00 AM 66.6992 -25.2363 249° West  Level Estimated
Tue 09:21:00 AM 66.6579 -25.5008 249° West  Level Estimated
Tue 09:22:00 AM 66.6160 -25.7644 248° West  Level Estimated
Tue 09:23:00 AM 66.5738 -26.0270 248° West  Level Estimated
Tue 09:24:00 AM 66.5311 -26.2888 248° West  Level Estimated
Tue 09:25:00 AM 66.4879 -26.5497 248° West  Level Estimated
Tue 09:26:00 AM 66.4444 -26.8097 247° West  Level Estimated
Tue 09:27:00 AM 66.4004 -27.0688 247° West  Level Estimated
Tue 09:28:00 AM 66.3559 -27.3269 247° West  Level Estimated
Tue 09:29:00 AM 66.3111 -27.5842 247° West  Level Estimated
Tue 09:30:00 AM 66.2658 -27.8405 246° West  Level Estimated
Tue 09:31:00 AM 66.2201 -28.0959 246° West  Level Estimated
Tue 09:32:00 AM 66.1740 -28.3503 246° West  Level Estimated
Tue 09:33:00 AM 66.1274 -28.6039 246° West  Level Estimated
Tue 09:34:00 AM 66.0805 -28.8565 245° Southwest  Level Estimated
Tue 09:35:00 AM 66.0331 -29.1082 245° Southwest  Level Estimated
Tue 09:36:00 AM 65.9853 -29.3589 245° Southwest  Level Estimated
Tue 09:37:00 AM 65.9372 -29.6087 245° Southwest  Level Estimated
Tue 09:38:00 AM 65.8886 -29.8575 245° Southwest  Level Estimated
Tue 09:39:00 AM 65.8396 -30.1054 244° Southwest  Level Estimated
Tue 09:40:00 AM 65.7902 -30.3524 244° Southwest  Level Estimated
Tue 09:41:00 AM 65.7404 -30.5984 244° Southwest  Level Estimated
Tue 09:42:00 AM 65.6903 -30.8434 244° Southwest  Level Estimated
Tue 09:43:00 AM 65.6397 -31.0875 243° Southwest  Level Estimated
Tue 09:44:00 AM 65.5888 -31.3307 243° Southwest  Level Estimated
Tue 09:45:00 AM 65.5374 -31.5729 243° Southwest  Level Estimated
Tue 09:46:00 AM 65.4857 -31.8141 243° Southwest  Level Estimated
Tue 09:47:00 AM 65.4336 -32.0544 243° Southwest  Level Estimated
Tue 09:48:00 AM 65.3811 -32.2937 242° Southwest  Level Estimated
Tue 09:49:00 AM 65.3283 -32.5321 242° Southwest  Level Estimated
Tue 09:50:00 AM 65.2750 -32.7695 242° Southwest  Level Estimated
Tue 09:51:00 AM 65.2214 -33.0060 242° Southwest  Level Estimated
Tue 09:52:00 AM 65.1674 -33.2415 241° Southwest  Level Estimated
Tue 09:53:00 AM 65.1131 -33.4760 241° Southwest  Level Estimated
Tue 09:54:00 AM 65.0584 -33.7096 241° Southwest  Level Estimated
Tue 09:55:00 AM 65.0033 -33.9422 241° Southwest  Level Estimated
Tue 09:56:00 AM 64.9479 -34.1738 241° Southwest  Level Estimated
Tue 09:57:00 AM 64.8921 -34.4045 240° Southwest  Level Estimated
Tue 09:58:00 AM 64.8359 -34.6342 240° Southwest  Level Estimated
Tue 09:59:00 AM 64.7794 -34.8630 240° Southwest  Level Estimated
Tue 10:00:00 AM 64.7226 -35.0908 240° Southwest  Level Estimated
Tue 10:01:00 AM 64.6654 -35.3177 240° Southwest  Level Estimated
Tue 10:02:00 AM 64.6078 -35.5436 239° Southwest  Level Estimated
Tue 10:03:00 AM 64.5499 -35.7685 239° Southwest  Level Estimated
Tue 10:04:00 AM 64.4917 -35.9925 239° Southwest  Level Estimated
Tue 10:05:00 AM 64.4332 -36.2155 239° Southwest  Level Estimated
Tue 10:05:12 AM 67.4040 -44.5890 239° Southwest 438 504 36,000  Level FlightAware ADS-B
Tue 10:05:50 AM 67.3500 -44.7280 225° Southwest 439 505 36,000  Level FlightAware ADS-B
Tue 10:06:00 AM 64.3743 -36.4376 239° Southwest  Level Estimated
Tue 10:06:26 AM 67.2970 -44.8630 225° Southwest 439 505 36,000  Level FlightAware ADS-B
Tue 10:07:04 AM 67.2430 -44.9990 224° Southwest 439 505 36,000  Level FlightAware ADS-B
Tue 10:07:38 AM 67.1950 -45.1210 225° Southwest 438 504 36,000  Level FlightAware ADS-B
Tue 10:08:08 AM 67.1500 -45.2340 224° Southwest 437 503 36,000  Level FlightAware ADS-B
Tue 10:08:39 AM 67.1070 -45.3410 224° Southwest 434 499 36,000  Level FlightAware ADS-B
Tue 10:09:26 AM 67.0390 -45.5100 224° Southwest 434 499 36,000  Level FlightAware ADS-B
Tue 10:10:10 AM 66.9750 -45.6660 224° Southwest 432 497 36,000  Level FlightAware ADS-B
Tue 10:10:42 AM 66.9290 -45.7800 224° Southwest 430 495 36,000  Level FlightAware ADS-B
Tue 10:11:28 AM 66.8630 -45.9390 223° Southwest 429 494 36,000  Level FlightAware ADS-B
Tue 10:11:41 AM 66.8460 -45.9810 224° Southwest 429 494 36,000  Level FlightAware ADS-B
Tue 10:12:36 AM 66.7660 -46.1720 223° Southwest 432 497 36,000  Level FlightAware ADS-B
Tue 10:13:18 AM 66.7050 -46.3180 223° Southwest 432 497 36,000  Level FlightAware ADS-B
Tue 10:13:58 AM 66.6470 -46.4550 223° Southwest 429 494 36,000  Level FlightAware ADS-B
Tue 10:14:47 AM 66.5760 -46.6200 223° Southwest 430 495 36,000  Level FlightAware ADS-B
Tue 10:15:18 AM 66.5310 -46.7250 223° Southwest 430 495 36,000  Level FlightAware ADS-B
Tue 10:15:42 AM 66.4950 -46.8080 223° Southwest 432 497 36,000  Level FlightAware ADS-B
Tue 10:16:20 AM 66.4470 -46.9170 222° Southwest 432 497 36,000  Level FlightAware ADS-B
Tue 10:16:56 AM 66.4020 -47.0190 222° Southwest 432 497 36,000  Level FlightAware ADS-B
Tue 10:17:32 AM 66.3560 -47.1210 222° Southwest 432 497 36,000  Level FlightAware ADS-B
Tue 10:18:07 AM 66.3120 -47.2200 222° Southwest 432 497 36,000  Level FlightAware ADS-B
Tue 10:18:31 AM 66.2820 -47.2880 222° Southwest 432 497 36,000  Level FlightAware ADS-B
Tue 10:19:08 AM 66.2350 -47.3920 222° Southwest 432 497 36,000  Level FlightAware ADS-B
Tue 10:19:44 AM 66.1900 -47.4940 222° Southwest 432 497 36,000  Level FlightAware ADS-B
Tue 10:20:21 AM 66.1430 -47.5980 222° Southwest 432 497 36,000  Level FlightAware ADS-B
Tue 10:20:45 AM 66.1130 -47.6650 222° Southwest 432 497 36,000  Level FlightAware ADS-B
Tue 10:21:21 AM 66.0670 -47.7660 222° Southwest 432 497 36,000  Level FlightAware ADS-B
Tue 10:22:23 AM 65.9890 -47.9400 222° Southwest 432 497 36,000  Level FlightAware ADS-B
Tue 10:23:11 AM 65.9280 -48.0730 222° Southwest 432 497 36,000  Level FlightAware ADS-B
Tue 10:23:59 AM 65.8680 -48.2070 222° Southwest 432 497 36,000  Level FlightAware ADS-B
Tue 10:24:35 AM 65.8220 -48.3070 222° Southwest 432 497 36,000  Level FlightAware ADS-B
Tue 10:25:09 AM 65.7790 -48.4010 222° Southwest 432 497 36,000  Level FlightAware ADS-B
Tue 10:25:33 AM 65.7490 -48.4680 223° Southwest 432 497 36,000  Level FlightAware ADS-B
Tue 10:28:00 AM 65.5371 -48.9570 224° Southwest  Level Estimated
Tue 10:29:00 AM 65.4501 -49.1543 223° Southwest  Level Estimated
Tue 10:30:00 AM 65.3630 -49.3503 223° Southwest  Level Estimated
Tue 10:31:00 AM 65.2755 -49.5450 223° Southwest  Level Estimated
Tue 10:32:00 AM 65.1878 -49.7384 223° Southwest  Level Estimated
Tue 10:33:00 AM 65.0999 -49.9305 223° Southwest  Level Estimated
Tue 10:34:00 AM 65.0117 -50.1214 222° Southwest  Level Estimated
Tue 10:35:00 AM 64.9232 -50.3110 222° Southwest  Level Estimated
Tue 10:36:00 AM 64.8346 -50.4993 222° Southwest  Level Estimated
Tue 10:37:00 AM 64.7457 -50.6864 222° Southwest  Level Estimated
Tue 10:37:06 AM 64.7050 -51.2080 222° Southwest 436 502 36,000  Level FlightAware ADS-B
Tue 10:37:38 AM 64.6720 -51.3370 239° Southwest 436 502 36,000  Level FlightAware ADS-B
Tue 10:38:18 AM 64.6310 -51.5000 240° Southwest 435 501 36,000  Level FlightAware ADS-B
Tue 10:39:26 AM 64.5610 -51.7740 239° Southwest 434 499 36,000  Level FlightAware ADS-B
Tue 10:40:07 AM 64.5190 -51.9360 239° Southwest 433 498 36,000  Level FlightAware ADS-B
Tue 10:41:06 AM 64.4580 -52.1700 239° Southwest 433 498 36,000  Level FlightAware ADS-B
Tue 10:41:40 AM 64.4230 -52.3040 239° Southwest 434 499 36,000  Level FlightAware ADS-B
Tue 10:42:18 AM 64.3830 -52.4530 238° Southwest 434 499 36,000  Level FlightAware ADS-B
Tue 10:42:50 AM 64.3490 -52.5820 239° Southwest 434 499 36,000  Level FlightAware ADS-B
Tue 10:43:30 AM 64.3070 -52.7390 238° Southwest 436 502 36,000  Level FlightAware ADS-B
Tue 10:44:16 AM 64.2590 -52.9170 238° Southwest 437 503 36,000  Level FlightAware ADS-B
Tue 10:44:46 AM 64.2300 -53.0210 237° Southwest 438 504 36,000  Level FlightAware ADS-B
Tue 10:45:36 AM 64.1830 -53.1870 237° Southwest 438 504 36,000  Level FlightAware ADS-B
Tue 10:46:03 AM 64.1440 -53.3360 239° Southwest 439 505 36,000  Level FlightAware ADS-B
Tue 10:46:24 AM 64.1210 -53.4190 238° Southwest 438 504 36,000  Level FlightAware ADS-B
Tue 10:47:09 AM 64.0720 -53.5950 238° Southwest 437 503 36,000  Level FlightAware ADS-B
Tue 10:48:01 AM 64.0230 -53.7660 237° Southwest 437 503 36,000  Level FlightAware ADS-B
Tue 10:48:25 AM 64.0010 -53.8450 238° Southwest 437 503 36,000  Level FlightAware ADS-B
Tue 10:49:01 AM 63.9670 -53.9640 237° Southwest 437 503 36,000  Level FlightAware ADS-B
Tue 10:49:39 AM 63.9310 -54.0880 237° Southwest 437 503 36,000  Level FlightAware ADS-B
Tue 10:50:16 AM 63.8970 -54.2090 237° Southwest 437 503 36,000  Level FlightAware ADS-B
Tue 10:50:53 AM 63.8620 -54.3310 237° Southwest 437 503 36,000  Level FlightAware ADS-B
Tue 10:51:53 AM 63.8060 -54.5270 237° Southwest 437 503 36,000  Level FlightAware ADS-B
Tue 10:52:29 AM 63.7720 -54.6440 237° Southwest 437 503 36,000  Level FlightAware ADS-B
Tue 10:53:06 AM 63.7380 -54.7650 238° Southwest 437 503 36,000  Level FlightAware ADS-B
Tue 10:53:55 AM 63.6920 -54.9240 237° Southwest 437 503 36,000  Level FlightAware ADS-B
Tue 10:54:41 AM 63.6490 -55.0740 237° Southwest 437 503 36,000  Level FlightAware ADS-B
Tue 10:55:16 AM 63.6160 -55.1870 237° Southwest 437 503 36,000  Level FlightAware ADS-B
Tue 10:55:40 AM 63.5930 -55.2650 236° Southwest 437 503 36,000  Level FlightAware ADS-B
Tue 10:56:28 AM 63.5480 -55.4200 237° Southwest 437 503 36,000  Level FlightAware ADS-B
Tue 10:57:04 AM 63.5150 -55.5370 238° Southwest 437 503 36,000  Level FlightAware ADS-B
Tue 10:57:40 AM 63.3833 -55.9167 238° Southwest 460 529 36,000  Level Gander Center
Tue 10:58:40 AM 63.3333 -56.1500 245° Southwest 450 518 36,000  Level Gander Center
Tue 10:59:40 AM 63.2500 -56.3500 227° Southwest 440 506 36,000  Level Gander Center
Tue 11:00:40 AM 63.1833 -56.5833 238° Southwest 440 506 36,000  Level Gander Center
Tue 11:01:40 AM 63.1000 -56.8167 232° Southwest 450 518 36,000 100 Level Gander Center
Tue 11:02:40 AM 63.0500 -57.0500 245° Southwest 450 518 36,200 650 Climbing Gander Center
Tue 11:03:40 AM 62.9667 -57.2333 225° Southwest 440 506 37,300 900 Climbing Gander Center
Tue 11:04:40 AM 62.9000 -57.4667 238° Southwest 440 506 38,000 350 Climbing Gander Center
Tue 11:05:40 AM 62.8333 -57.6833 236° Southwest 440 506 38,000  Level Gander Center
Tue 11:07:00 AM 62.7423 -57.9627 235° Southwest  Level FlightAware Approximate
Tue 11:13:05 AM 62.3167 -59.2833 234° Southwest 240 276 38,000  Level Gander Center
Tue 11:14:00 AM 62.2592 -59.4082 235° Southwest  Level FlightAware Approximate
Tue 11:14:05 AM 62.2500 -59.5000 237° Southwest 430 495 38,000  Level Gander Center
Tue 11:15:00 AM 62.1903 -59.6130 234° Southwest  Level FlightAware Approximate
Tue 11:15:05 AM 62.1667 -59.7167 231° Southwest 440 506 38,000  Level Gander Center
Tue 11:15:53 AM 62.1000 -59.8333 219° Southwest 440 506 38,000  Level Montreal Center
Tue 11:16:00 AM 62.1212 -59.8169 234° Southwest  Level FlightAware Approximate
Tue 11:16:53 AM 62.0333 -60.0167 232° Southwest 440 506 38,000  Level Montreal Center
Tue 11:17:00 AM 62.0518 -60.0198 234° Southwest  Level FlightAware Approximate
Tue 11:17:53 AM 61.9500 -60.2833 236° Southwest 450 518 38,000  Level Montreal Center
Tue 11:18:00 AM 61.9820 -60.2219 234° Southwest  Level FlightAware Approximate
Tue 11:18:53 AM 61.8833 -60.5000 237° Southwest 460 529 38,000  Level Montreal Center
Tue 11:19:53 AM 61.8000 -60.7167 231° Southwest 450 518 38,000  Level Montreal Center
Tue 11:20:53 AM 61.7333 -60.9333 237° Southwest 450 518 38,000  Level Montreal Center
Tue 11:21:53 AM 61.6500 -61.1167 226° Southwest 450 518 38,000  Level Montreal Center
Tue 11:22:53 AM 61.5833 -61.3667 241° Southwest 450 518 38,000  Level Montreal Center
Tue 11:23:53 AM 61.5000 -61.5500 226° Southwest 450 518 38,000  Level Montreal Center
Tue 11:24:53 AM 61.4333 -61.7500 235° Southwest 450 518 38,000  Level Montreal Center
Tue 11:25:53 AM 61.3500 -61.9667 231° Southwest 450 518 38,000  Level Montreal Center
Tue 11:26:53 AM 61.2667 -62.1833 231° Southwest 450 518 38,000  Level Montreal Center
Tue 11:27:53 AM 61.1833 -62.3833 229° Southwest 450 518 38,000  Level Montreal Center
Tue 11:28:53 AM 61.1000 -62.5667 227° Southwest 460 529 38,000  Level Montreal Center
Tue 11:29:53 AM 61.0333 -62.7667 236° Southwest 450 518 38,000  Level Montreal Center
Tue 11:30:53 AM 60.9500 -62.9833 232° Southwest 450 518 38,000  Level Montreal Center
Tue 11:31:53 AM 60.8667 -63.2333 236° Southwest 450 518 38,000  Level Montreal Center
Tue 11:32:53 AM 60.8000 -63.4333 236° Southwest 460 529 38,000  Level Montreal Center
Tue 11:33:53 AM 60.7167 -63.6333 230° Southwest 460 529 38,000  Level Montreal Center
Tue 11:34:53 AM 60.6167 -63.8333 225° Southwest 460 529 38,000  Level Montreal Center
Tue 11:35:53 AM 60.5500 -64.0333 236° Southwest 460 529 38,000  Level Montreal Center
Tue 11:36:53 AM 60.4667 -64.2333 230° Southwest 460 529 38,000  Level Montreal Center
Tue 11:37:53 AM 60.3833 -64.4333 230° Southwest 460 529 38,000  Level Montreal Center
Tue 11:38:53 AM 60.3000 -64.6333 230° Southwest 460 529 38,000  Level Montreal Center
Tue 11:39:53 AM 60.2167 -64.8333 230° Southwest 460 529 38,000  Level Montreal Center
Tue 11:40:53 AM 60.1333 -65.0333 230° Southwest 460 529 38,000  Level Montreal Center
Tue 11:41:53 AM 60.0500 -65.2000 225° Southwest 460 529 38,000  Level Montreal Center
Tue 11:42:53 AM 59.9333 -65.3667 216° Southwest 460 529 38,000  Level Montreal Center
Tue 11:43:53 AM 59.8500 -65.5333 225° Southwest 460 529 38,000  Level Montreal Center
Tue 11:44:53 AM 59.7500 -65.7000 220° Southwest 460 529 38,000  Level Montreal Center
Tue 11:45:53 AM 59.6500 -65.9000 225° Southwest 460 529 38,000  Level Montreal Center
Tue 11:46:53 AM 59.5667 -66.0500 222° Southwest 460 529 38,000  Level Montreal Center
Tue 11:47:53 AM 59.4667 -66.2167 220° Southwest 460 529 38,000  Level Montreal Center
Tue 11:48:53 AM 59.3667 -66.3833 220° Southwest 460 529 38,000  Level Montreal Center
Tue 11:49:53 AM 59.2667 -66.5333 217° Southwest 460 529 38,000  Level Montreal Center
Tue 11:50:53 AM 59.1667 -66.7000 221° Southwest 460 529 38,000  Level Montreal Center
Tue 11:51:53 AM 59.0667 -66.8500 218° Southwest 460 529 38,000  Level Montreal Center
Tue 11:52:53 AM 58.9667 -67.0500 226° Southwest 460 529 38,000  Level Montreal Center
Tue 11:53:53 AM 58.8667 -67.2000 218° Southwest 460 529 38,000  Level Montreal Center
Tue 11:54:53 AM 58.7667 -67.3500 218° Southwest 460 529 38,000  Level Montreal Center
Tue 11:55:53 AM 58.6667 -67.5167 221° Southwest 470 541 38,000  Level Montreal Center
Tue 11:56:53 AM 58.5667 -67.6667 218° Southwest 470 541 38,000  Level Montreal Center
Tue 11:57:53 AM 58.4667 -67.8167 218° Southwest 470 541 38,000  Level Montreal Center
Tue 11:58:53 AM 58.3667 -68.0000 224° Southwest 470 541 38,000  Level Montreal Center
Tue 11:59:53 AM 58.2667 -68.1500 218° Southwest 470 541 38,000  Level Montreal Center
Tue 12:00:53 PM 58.1667 -68.3000 218° Southwest 470 541 38,000  Level Montreal Center
Tue 12:02:21 PM 58.0167 -68.5167 217° Southwest 490 564 38,000  Level Montreal Center
Tue 12:03:21 PM 57.9000 -68.6667 214° Southwest 470 541 38,000  Level Montreal Center
Tue 12:04:21 PM 57.8000 -68.8167 219° Southwest 470 541 38,000  Level Montreal Center
Tue 12:05:21 PM 57.7000 -68.9667 219° Southwest 470 541 38,000  Level Montreal Center
Tue 12:06:21 PM 57.5833 -69.1167 215° Southwest 470 541 38,000  Level Montreal Center
Tue 12:07:21 PM 57.4667 -69.2333 208° Southwest 470 541 38,000  Level Montreal Center
Tue 12:08:21 PM 57.3833 -69.3667 221° Southwest 470 541 38,000  Level Montreal Center
Tue 12:09:21 PM 57.2667 -69.5167 215° Southwest 470 541 38,000  Level Montreal Center
Tue 12:10:21 PM 57.1500 -69.6667 215° Southwest 470 541 38,000  Level Montreal Center
Tue 12:11:21 PM 57.0667 -69.8000 221° Southwest 470 541 38,000  Level Montreal Center
Tue 12:12:21 PM 56.9500 -69.9333 212° Southwest 470 541 38,000  Level Montreal Center
Tue 12:13:21 PM 56.8333 -70.0833 215° Southwest 470 541 38,000  Level Montreal Center
Tue 12:14:21 PM 56.7333 -70.2167 216° Southwest 470 541 38,000  Level Montreal Center
Tue 12:15:21 PM 56.6333 -70.3667 220° Southwest 470 541 38,000  Level Montreal Center
Tue 12:16:21 PM 56.5000 -70.5000 209° Southwest 470 541 38,000  Level Montreal Center
Tue 12:17:21 PM 56.3833 -70.6333 212° Southwest 470 541 38,000  Level Montreal Center
Tue 12:18:21 PM 56.3000 -70.7667 222° Southwest 470 541 38,000  Level Montreal Center
Tue 12:19:21 PM 56.1833 -70.9167 216° Southwest 470 541 38,000  Level Montreal Center
Tue 12:20:21 PM 56.0667 -71.0500 213° Southwest 470 541 38,000  Level Montreal Center
Tue 12:21:21 PM 55.9500 -71.1500 206° Southwest 480 552 38,000  Level Montreal Center
Tue 12:22:21 PM 55.8500 -71.2833 217° Southwest 470 541 38,000  Level Montreal Center
Tue 12:23:21 PM 55.7333 -71.4167 213° Southwest 470 541 38,000  Level Montreal Center
Tue 12:24:21 PM 55.6333 -71.5500 217° Southwest 480 552 38,000  Level Montreal Center
Tue 12:25:21 PM 55.5167 -71.6833 213° Southwest 480 552 38,000  Level Montreal Center
Tue 12:26:21 PM 55.4000 -71.8167 213° Southwest 480 552 38,000  Level Montreal Center
Tue 12:27:21 PM 55.3000 -71.9333 214° Southwest 480 552 38,000  Level Montreal Center
Tue 12:28:21 PM 55.1833 -72.0667 213° Southwest 480 552 38,000  Level Montreal Center
Tue 12:29:21 PM 55.0667 -72.2000 213° Southwest 470 541 38,000  Level Montreal Center
Tue 12:30:21 PM 54.9500 -72.3333 213° Southwest 480 552 38,000  Level Montreal Center
Tue 12:31:21 PM 54.8333 -72.4500 210° Southwest 480 552 38,000  Level Montreal Center
Tue 12:32:21 PM 54.7167 -72.5833 213° Southwest 480 552 38,000  Level Montreal Center
Tue 12:33:21 PM 54.6167 -72.7000 214° Southwest 490 564 38,000  Level Montreal Center
Tue 12:34:21 PM 54.5000 -72.8333 214° Southwest 490 564 38,000  Level Montreal Center
Tue 12:35:21 PM 54.3833 -72.9500 210° Southwest 480 552 38,000  Level Montreal Center
Tue 12:36:21 PM 54.2667 -73.0833 214° Southwest 480 552 38,000  Level Montreal Center
Tue 12:37:21 PM 54.1667 -73.2000 214° Southwest 490 564 38,000  Level Montreal Center
Tue 12:38:21 PM 54.0333 -73.3333 210° Southwest 490 564 38,000  Level Montreal Center
Tue 12:39:21 PM 53.9333 -73.4667 218° Southwest 490 564 38,000  Level Montreal Center
Tue 12:40:21 PM 53.8167 -73.6000 214° Southwest 490 564 38,000  Level Montreal Center
Tue 12:41:21 PM 53.6833 -73.7167 207° Southwest 490 564 38,000  Level Montreal Center
Tue 12:42:21 PM 53.5667 -73.8167 207° Southwest 490 564 38,000  Level Montreal Center
Tue 12:43:21 PM 53.4333 -73.9333 208° Southwest 490 564 38,000  Level Montreal Center
Tue 12:44:21 PM 53.3167 -74.0167 203° Southwest 490 564 38,000  Level Montreal Center
Tue 12:45:21 PM 53.1833 -74.1333 208° Southwest 490 564 38,000  Level Montreal Center
Tue 12:46:21 PM 53.0667 -74.2333 207° Southwest 490 564 38,000  Level Montreal Center
Tue 12:47:21 PM 52.9667 -74.3500 215° Southwest 490 564 38,000  Level Montreal Center
Tue 12:48:21 PM 52.8333 -74.4333 201° Southwest 490 564 38,000  Level Montreal Center
Tue 12:49:21 PM 52.7167 -74.5167 203° Southwest 490 564 38,000  Level Montreal Center
Tue 12:50:21 PM 52.5833 -74.6333 208° Southwest 490 564 38,000  Level Montreal Center
Tue 12:51:21 PM 52.4500 -74.7167 201° Southwest 490 564 38,000  Level Montreal Center
Tue 12:52:21 PM 52.3167 -74.8333 208° Southwest 490 564 38,000  Level Montreal Center
Tue 12:53:21 PM 52.2000 -74.9167 204° Southwest 480 552 38,000  Level Montreal Center
Tue 12:54:21 PM 52.0833 -75.0333 212° Southwest 480 552 38,000  Level Montreal Center
Tue 12:55:21 PM 51.9500 -75.1167 201° Southwest 500 575 38,000  Level Montreal Center
Tue 12:56:21 PM 51.8333 -75.2333 212° Southwest 490 564 38,000  Level Montreal Center
Tue 12:57:21 PM 51.7000 -75.3167 201° Southwest 490 564 38,000  Level Montreal Center
Tue 12:58:21 PM 51.5833 -75.4167 208° Southwest 490 564 38,000  Level Montreal Center
Tue 12:59:21 PM 51.4500 -75.5000 201° Southwest 490 564 38,000  Level Montreal Center
Tue 01:00:21 PM 51.3333 -75.6167 212° Southwest 490 564 38,000  Level Montreal Center
Tue 01:01:21 PM 51.2000 -75.7000 201° Southwest 490 564 38,000  Level Montreal Center
Tue 01:02:21 PM 51.0833 -75.8000 208° Southwest 490 564 38,000  Level Montreal Center
Tue 01:03:21 PM 50.9667 -75.8833 204° Southwest 500 575 38,000  Level Montreal Center
Tue 01:04:21 PM 50.8333 -75.9667 202° Southwest 490 564 38,000  Level Montreal Center
Tue 01:05:21 PM 50.7167 -76.0667 208° Southwest 490 564 38,000  Level Montreal Center
Tue 01:06:21 PM 50.5833 -76.1500 202° Southwest 500 575 38,000  Level Montreal Center
Tue 01:07:21 PM 50.4667 -76.2500 209° Southwest 490 564 38,000  Level Montreal Center
Tue 01:08:21 PM 50.3333 -76.3333 202° Southwest 490 564 38,000  Level Montreal Center
Tue 01:09:21 PM 50.2167 -76.4333 209° Southwest 490 564 38,000  Level Montreal Center
Tue 01:10:21 PM 50.0667 -76.5167 200° South 490 564 38,000  Level Montreal Center
Tue 01:11:21 PM 49.9500 -76.6167 209° Southwest 490 564 38,000  Level Montreal Center
Tue 01:12:21 PM 49.8333 -76.7000 205° Southwest 490 564 38,000  Level Montreal Center
Tue 01:13:21 PM 49.7000 -76.7667 198° South 490 564 38,000  Level Montreal Center
Tue 01:14:21 PM 49.5833 -76.8667 209° Southwest 490 564 38,000  Level Montreal Center
Tue 01:15:21 PM 49.4667 -76.9500 205° Southwest 480 552 38,000  Level Montreal Center
Tue 01:16:21 PM 49.3333 -77.0500 206° Southwest 510 587 38,000  Level Montreal Center
Tue 01:17:21 PM 49.2167 -77.1167 200° South 470 541 38,000  Level Montreal Center
Tue 01:18:21 PM 49.0833 -77.2167 206° Southwest 490 564 38,000  Level Montreal Center
Tue 01:19:21 PM 48.9667 -77.3000 205° Southwest 490 564 38,000  Level Montreal Center
Tue 01:20:21 PM 48.8167 -77.4000 204° Southwest 490 564 38,000  Level Montreal Center
Tue 01:21:21 PM 48.7000 -77.4667 201° Southwest 490 564 38,000  Level Montreal Center
Tue 01:26:27 PM 48.0740 -77.8810 201° Southwest 494 568 38,000  Level FlightAware ADS-B
Tue 01:26:52 PM 48.0220 -77.9110 201° Southwest 494 568 38,000  Level FlightAware ADS-B
Tue 01:27:29 PM 47.9370 -77.9600 201° Southwest 495 570 38,000  Level FlightAware ADS-B
Tue 01:28:09 PM 47.8570 -78.0070 202° Southwest 494 568 38,000  Level FlightAware ADS-B
Tue 01:29:05 PM 47.7300 -78.0810 201° Southwest 492 566 38,000  Level FlightAware ADS-B
Tue 01:29:33 PM 47.6710 -78.1150 201° Southwest 491 565 38,000  Level FlightAware ADS-B
Tue 01:30:03 PM 47.6100 -78.1500 201° Southwest 491 565 38,000  Level FlightAware ADS-B
Tue 01:30:37 PM 47.5400 -78.1900 201° Southwest 493 567 38,000  Level FlightAware ADS-B
Tue 01:31:17 PM 47.4560 -78.2380 201° Southwest 493 567 38,000  Level FlightAware ADS-B
Tue 01:31:49 PM 47.3840 -78.2800 202° Southwest 492 566 38,000  Level FlightAware ADS-B
Tue 01:32:13 PM 47.3350 -78.3070 200° South 492 566 38,000  Level FlightAware ADS-B
Tue 01:33:20 PM 47.1940 -78.3880 201° Southwest 490 564 38,000  Level FlightAware ADS-B
Tue 01:33:51 PM 47.1260 -78.4260 201° Southwest 488 562 38,000  Level FlightAware ADS-B
Tue 01:35:02 PM 46.9780 -78.5100 201° Southwest 488 562 38,000  Level FlightAware ADS-B
Tue 01:35:33 PM 46.9120 -78.5460 200° South 487 560 38,000  Level FlightAware ADS-B
Tue 01:36:08 PM 46.8380 -78.5880 201° Southwest 486 559 38,000  Level FlightAware ADS-B
Tue 01:36:44 PM 46.7620 -78.6300 201° Southwest 484 557 38,000  Level FlightAware ADS-B
Tue 01:37:38 PM 46.6490 -78.6930 201° Southwest 485 558 38,000  Level FlightAware ADS-B
Tue 01:38:06 PM 46.5900 -78.7250 200° South 485 558 38,000  Level FlightAware ADS-B
Tue 01:39:08 PM 46.4600 -78.7970 201° Southwest 486 559 38,000  Level FlightAware ADS-B
Tue 01:39:41 PM 46.3920 -78.8350 201° Southwest 486 559 38,000  Level FlightAware ADS-B
Tue 01:40:14 PM 46.3210 -78.8730 200° South 485 558 38,000  Level FlightAware ADS-B
Tue 01:41:08 PM 46.2080 -78.9350 201° Southwest 485 558 38,000  Level FlightAware ADS-B
Tue 01:41:40 PM 46.1410 -78.9720 201° Southwest 485 558 38,000  Level FlightAware ADS-B
Tue 01:42:16 PM 46.0640 -79.0130 200° South 486 559 38,000  Level FlightAware ADS-B
Tue 01:43:18 PM 45.9340 -79.0830 201° Southwest 486 559 38,000  Level FlightAware ADS-B
Tue 01:43:50 PM 45.8670 -79.1200 201° Southwest 487 560 38,000  Level FlightAware ADS-B
Tue 01:44:32 PM 45.7790 -79.1670 200° South 487 560 38,000  Level FlightAware ADS-B
Tue 01:45:28 PM 45.6600 -79.2300 200° South 488 562 38,000  Level FlightAware ADS-B
Tue 01:46:04 PM 45.5850 -79.2700 200° South 487 560 38,000  Level FlightAware ADS-B
Tue 01:47:04 PM 45.4590 -79.3370 200° South 485 558 38,000  Level FlightAware ADS-B
Tue 01:47:24 PM 45.4210 -79.3570 200° South 485 558 38,000  Level FlightAware ADS-B
Tue 01:48:04 PM 45.3320 -79.4040 200° South 484 557 38,000  Level FlightAware ADS-B
Tue 01:48:38 PM 45.2640 -79.4400 200° South 484 557 38,000  Level FlightAware ADS-B
Tue 01:49:46 PM 45.1190 -79.5160 200° South 483 556 38,000  Level FlightAware ADS-B
Tue 01:50:22 PM 45.0460 -79.5540 200° South 481 554 38,000  Level FlightAware ADS-B
Tue 01:51:27 PM 44.9090 -79.6250 200° South 477 549 38,000  Level FlightAware ADS-B
Tue 01:52:29 PM 44.7800 -79.6920 200° South 478 550 38,000  Level FlightAware ADS-B
Tue 01:53:00 PM 44.7150 -79.7250 200° South 479 551 38,000  Level FlightAware ADS-B
Tue 01:53:38 PM 44.6360 -79.7660 200° South 478 550 38,000  Level FlightAware ADS-B
Tue 01:54:38 PM 44.5200 -79.8460 206° Southwest 469 540 38,000  Level FlightAware ADS-B
Tue 01:55:11 PM 44.4620 -79.9000 214° Southwest 468 539 38,000  Level FlightAware ADS-B
Tue 01:55:48 PM 44.3930 -79.9640 214° Southwest 467 537 38,000  Level FlightAware ADS-B
Tue 01:56:36 PM 44.3060 -80.0420 213° Southwest 468 539 38,000  Level FlightAware ADS-B
Tue 01:57:40 PM 44.1880 -80.1470 213° Southwest 469 540 38,000  Level FlightAware ADS-B
Tue 01:58:34 PM 44.0900 -80.2350 213° Southwest 469 540 38,000  Level FlightAware ADS-B
Tue 01:59:36 PM 43.9770 -80.3340 212° Southwest 469 540 38,000  Level FlightAware ADS-B
Tue 02:00:09 PM 43.9190 -80.3850 212° Southwest 469 540 38,000  Level FlightAware ADS-B
Tue 02:00:40 PM 43.8590 -80.4390 213° Southwest 468 539 38,000  Level FlightAware ADS-B
Tue 02:01:12 PM 43.8000 -80.4900 212° Southwest 467 537 38,000  Level FlightAware ADS-B
Tue 02:01:49 PM 43.7320 -80.5500 213° Southwest 465 535 38,000  Level FlightAware ADS-B
Tue 02:02:22 PM 43.6750 -80.6000 212° Southwest 464 534 38,000  Level FlightAware ADS-B
Tue 02:03:22 PM 43.5648 -80.6960 212° Southwest 463 533 38,000  Level FlightAware ADS-B
Tue 02:04:02 PM 43.4910 -80.7601 212° Southwest 465 535 38,000  Level FlightAware ADS-B
Tue 02:04:32 PM 43.4382 -80.8057 212° Southwest 466 536 38,000  Level FlightAware ADS-B
Tue 02:05:13 PM 43.3620 -80.8715 212° Southwest 466 536 38,000  Level FlightAware ADS-B
Tue 02:05:46 PM 43.3050 -80.9200 212° Southwest 467 537 38,000  Level FlightAware ADS-B
Tue 02:06:16 PM 43.2480 -80.9690 212° Southwest 467 537 38,000  Level FlightAware ADS-B
Tue 02:07:11 PM 43.1470 -81.0560 212° Southwest 467 537 38,000  Level FlightAware ADS-B
Tue 02:07:44 PM 43.0870 -81.1070 212° Southwest 467 537 38,000  Level FlightAware ADS-B
Tue 02:08:47 PM 42.9670 -81.1900 207° Southwest 472 543 38,000  Level FlightAware ADS-B
Tue 02:09:24 PM 42.8930 -81.2380 205° Southwest 470 541 38,000  Level FlightAware ADS-B
Tue 02:10:05 PM 42.8110 -81.2890 205° Southwest 469 540 38,000  Level FlightAware ADS-B
Tue 02:10:39 PM 42.7440 -81.3310 205° Southwest 468 539 38,000  Level FlightAware ADS-B
Tue 02:11:37 PM 42.6290 -81.4010 204° Southwest 468 539 38,000  Level FlightAware ADS-B
Tue 02:12:34 PM 42.5190 -81.4680 204° Southwest 465 535 38,000  Level FlightAware ADS-B
Tue 02:13:43 PM 42.3830 -81.5510 204° Southwest 461 531 38,000  Level FlightAware ADS-B
Tue 02:14:42 PM 42.2690 -81.6200 204° Southwest 460 529 38,000  Level FlightAware ADS-B
Tue 02:15:19 PM 42.2000 -81.6610 204° Southwest 462 532 38,000  Level FlightAware ADS-B
Tue 02:15:54 PM 42.1350 -81.7010 205° Southwest 462 532 38,000  Level FlightAware ADS-B
Tue 02:16:26 PM 42.0660 -81.7420 204° Southwest 461 531 38,000  Level FlightAware ADS-B
Tue 02:17:30 PM 41.9400 -81.8170 204° Southwest 459 528 38,000  Level FlightAware ADS-B
Tue 02:18:29 PM 41.8280 -81.8840 204° Southwest 459 528 38,000  Level FlightAware ADS-B
Tue 02:18:57 PM 41.7720 -81.9180 204° Southwest 459 528 38,000  Level FlightAware ADS-B
Tue 02:19:59 PM 41.6550 -81.9870 204° Southwest 459 528 38,000  Level FlightAware ADS-B
Tue 02:20:48 PM 41.5590 -82.0440 204° Southwest 460 529 38,000  Level FlightAware ADS-B
Tue 02:21:23 PM 41.4920 -82.0830 204° Southwest 460 529 38,000  Level FlightAware ADS-B
Tue 02:21:54 PM 41.4320 -82.1190 204° Southwest 460 529 38,000  Level FlightAware ADS-B
Tue 02:22:59 PM 41.2980 -82.1820 199° South 470 541 38,000  Level FlightAware ADS-B
Tue 02:23:53 PM 41.1860 -82.2230 195° South 469 540 38,000  Level FlightAware ADS-B
Tue 02:24:52 PM 41.0600 -82.2690 195° South 470 541 38,000  Level FlightAware ADS-B
Tue 02:25:18 PM 41.0060 -82.2880 195° South 469 540 38,000  Level FlightAware ADS-B
Tue 02:26:16 PM 40.8840 -82.3310 195° South 465 535 38,000  Level FlightAware ADS-B
Tue 02:26:38 PM 40.8390 -82.3470 195° South 465 535 38,000  Level FlightAware ADS-B
Tue 02:27:38 PM 40.7140 -82.3920 195° South 461 531 38,000  Level FlightAware ADS-B
Tue 02:28:32 PM 40.6030 -82.4300 195° South 457 526 38,000  Level FlightAware ADS-B
Tue 02:29:38 PM 40.4690 -82.4780 195° South 454 522 38,000  Level FlightAware ADS-B
Tue 02:30:08 PM 40.4090 -82.4990 195° South 455 524 38,000  Level FlightAware ADS-B
Tue 02:30:43 PM 40.3390 -82.5230 195° South 454 522 38,000  Level FlightAware ADS-B
Tue 02:31:39 PM 40.2250 -82.5630 195° South 451 519 38,000  Level FlightAware ADS-B
Tue 02:32:16 PM 40.1520 -82.5830 192° South 456 525 38,000  Level FlightAware ADS-B
Tue 02:32:40 PM 40.1000 -82.5910 187° South 461 531 38,000  Level FlightAware ADS-B
Tue 02:33:12 PM 40.0330 -82.5950 183° South 461 531 38,000  Level FlightAware ADS-B
Tue 02:33:54 PM 39.9390 -82.6030 184° South 459 528 38,000  Level FlightAware ADS-B
Tue 02:34:28 PM 39.8680 -82.6080 183° South 456 525 38,000  Level FlightAware ADS-B
Tue 02:35:08 PM 39.7830 -82.6130 183° South 453 521 38,000  Level FlightAware ADS-B
Tue 02:35:45 PM 39.7090 -82.6180 183° South 452 520 38,000  Level FlightAware ADS-B
Tue 02:36:26 PM 39.6200 -82.6240 183° South 453 521 38,000  Level FlightAware ADS-B
Tue 02:36:55 PM 39.5610 -82.6280 183° South 453 521 38,000  Level FlightAware ADS-B
Tue 02:37:52 PM 39.4410 -82.6360 183° South 453 521 38,000  Level FlightAware ADS-B
Tue 02:38:32 PM 39.3570 -82.6420 183° South 451 519 38,000  Level FlightAware ADS-B
Tue 02:39:04 PM 39.2900 -82.6460 183° South 449 517 38,000  Level FlightAware ADS-B
Tue 02:39:33 PM 39.2320 -82.6500 183° South 447 514 38,000  Level FlightAware ADS-B
Tue 02:40:09 PM 39.1600 -82.6550 183° South 445 512 38,000  Level FlightAware ADS-B
Tue 02:41:13 PM 39.0280 -82.6640 183° South 443 510 38,000  Level FlightAware ADS-B
Tue 02:42:02 PM 38.9250 -82.6700 183° South 443 510 38,000  Level FlightAware ADS-B
Tue 02:42:29 PM 38.8710 -82.6740 183° South 443 510 38,000  Level FlightAware ADS-B
Tue 02:43:02 PM 38.8030 -82.6780 183° South 442 509 38,000  Level FlightAware ADS-B
Tue 02:44:03 PM 38.6780 -82.6870 183° South 444 511 38,000  Level FlightAware ADS-B
Tue 02:44:30 PM 38.6250 -82.6900 183° South 444 511 38,000  Level FlightAware ADS-B
Tue 02:45:38 PM 38.4840 -82.6990 183° South 441 507 38,000  Level FlightAware ADS-B
Tue 02:46:10 PM 38.4190 -82.7040 183° South 439 505 38,000  Level FlightAware ADS-B
Tue 02:46:34 PM 38.3690 -82.7070 183° South 437 503 38,000  Level FlightAware ADS-B
Tue 02:47:06 PM 38.3030 -82.7110 183° South 435 501 38,000  Level FlightAware ADS-B
Tue 02:48:21 PM 38.1544 -82.7207 183° South 432 497 38,000  Level FlightAware ADS-B
Tue 02:48:51 PM 38.0926 -82.7247 183° South 433 498 38,000  Level FlightAware ADS-B
Tue 02:49:30 PM 38.0150 -82.7297 183° South 433 498 38,000  Level FlightAware ADS-B
Tue 02:50:35 PM 37.8842 -82.7382 183° South 434 499 38,000  Level FlightAware ADS-B
Tue 02:51:35 PM 37.7650 -82.7467 183° South 435 501 38,000  Level FlightAware ADS-B
Tue 02:51:58 PM 37.7206 -82.7548 188° South 421 484 38,000  Level FlightAware ADS-B
Tue 02:52:42 PM 37.6398 -82.7824 195° South 407 468 38,000  Level FlightAware ADS-B
Tue 02:53:18 PM 37.5787 -82.8163 204° Southwest 392 451 38,000  Level FlightAware ADS-B
Tue 02:53:50 PM 37.5282 -82.8500 208° Southwest 393 452 38,000  Level FlightAware ADS-B
Tue 02:54:20 PM 37.4788 -82.8826 208° Southwest 393 452 38,000  Level FlightAware ADS-B
Tue 02:54:52 PM 37.4277 -82.9161 208° Southwest 393 452 38,000  Level FlightAware ADS-B
Tue 02:55:25 PM 37.3750 -82.9507 208° Southwest 394 453 38,000  Level FlightAware ADS-B
Tue 02:55:57 PM 37.3225 -82.9852 208° Southwest 397 457 38,000  Level FlightAware ADS-B
Tue 02:56:28 PM 37.2727 -83.0178 208° Southwest 399 459 38,000  Level FlightAware ADS-B
Tue 02:56:59 PM 37.2220 -83.0510 208° Southwest 397 457 38,000  Level FlightAware ADS-B
Tue 02:57:29 PM 37.1747 -83.0818 207° Southwest 396 456 38,000  Level FlightAware ADS-B
Tue 02:58:00 PM 37.1236 -83.1150 207° Southwest 395 455 38,000  Level FlightAware ADS-B
Tue 02:58:32 PM 37.0708 -83.1494 207° Southwest 394 453 38,000  Level FlightAware ADS-B
Tue 02:59:02 PM 37.0216 -83.1816 208° Southwest 394 453 38,000  Level FlightAware ADS-B
Tue 02:59:33 PM 36.9726 -83.2134 207° Southwest 394 453 38,000  Level FlightAware ADS-B
Tue 03:00:04 PM 36.9223 -83.2461 207° Southwest 394 453 38,000  Level FlightAware ADS-B
Tue 03:00:36 PM 36.8708 -83.2792 207° Southwest 395 455 38,000  Level FlightAware ADS-B
Tue 03:01:06 PM 36.8219 -83.3107 207° Southwest 395 455 38,000  Level FlightAware ADS-B
Tue 03:01:36 PM 36.7721 -83.3430 207° Southwest 396 456 38,000  Level FlightAware ADS-B
Tue 03:02:09 PM 36.7196 -83.3768 207° Southwest 397 457 38,000  Level FlightAware ADS-B
Tue 03:02:41 PM 36.6678 -83.4101 207° Southwest 397 457 38,000  Level FlightAware ADS-B
Tue 03:03:12 PM 36.6157 -83.4436 207° Southwest 396 456 38,000  Level FlightAware ADS-B
Tue 03:03:43 PM 36.5656 -83.4756 207° Southwest 395 455 38,000  Level FlightAware ADS-B
Tue 03:04:14 PM 36.5163 -83.5070 207° Southwest 392 451 38,000  Level FlightAware ADS-B
Tue 03:04:44 PM 36.4673 -83.5383 207° Southwest 388 447 38,000  Level FlightAware ADS-B
Tue 03:05:14 PM 36.4194 -83.5690 207° Southwest 387 445 38,000  Level FlightAware ADS-B
Tue 03:05:45 PM 36.3724 -83.5991 207° Southwest 387 445 38,000  Level FlightAware ADS-B
Tue 03:06:15 PM 36.3228 -83.6307 207° Southwest 390 449 38,000  Level FlightAware ADS-B
Tue 03:06:46 PM 36.2732 -83.6623 207° Southwest 391 450 38,000  Level FlightAware ADS-B
Tue 03:07:18 PM 36.2220 -83.6947 207° Southwest 391 450 38,000  Level FlightAware ADS-B
Tue 03:07:48 PM 36.1731 -83.7257 207° Southwest 390 449 38,000  Level FlightAware ADS-B
Tue 03:08:19 PM 36.1236 -83.7569 207° Southwest 387 445 38,000  Level FlightAware ADS-B
Tue 03:09:00 PM 36.0581 -83.7984 207° Southwest 386 444 38,000  Level FlightAware ADS-B
Tue 03:09:32 PM 36.0083 -83.8298 207° Southwest 385 443 38,000  Level FlightAware ADS-B
Tue 03:10:04 PM 35.9567 -83.8621 207° Southwest 387 445 38,000  Level FlightAware ADS-B
Tue 03:10:28 PM 35.9172 -83.8830 203° Southwest 396 456 38,000  Level FlightAware ADS-B
Tue 03:10:54 PM 35.8717 -83.9006 197° South 403 464 38,000  Level FlightAware ADS-B
Tue 03:11:25 PM 35.8129 -83.9159 192° South 410 472 38,000  Level FlightAware ADS-B
Tue 03:11:57 PM 35.7537 -83.9310 192° South 408 470 38,000  Level FlightAware ADS-B
Tue 03:12:28 PM 35.6977 -83.9451 192° South 408 470 38,000  Level FlightAware ADS-B
Tue 03:13:09 PM 35.6203 -83.9641 191° South 409 471 38,000  Level FlightAware ADS-B
Tue 03:13:45 PM 35.5539 -83.9803 191° South 409 471 38,000  Level FlightAware ADS-B
Tue 03:14:19 PM 35.4924 -83.9950 191° South 409 471 38,000  Level FlightAware ADS-B
Tue 03:14:50 PM 35.4330 -84.0093 191° South 412 474 38,000  Level FlightAware ADS-B
Tue 03:15:21 PM 35.3743 -84.0236 191° South 413 475 38,000  Level FlightAware ADS-B
Tue 03:15:52 PM 35.3182 -84.0371 191° South 409 471 38,000  Level FlightAware ADS-B
Tue 03:16:22 PM 35.2608 -84.0508 191° South 409 471 38,000  Level FlightAware ADS-B
Tue 03:16:53 PM 35.2052 -84.0643 191° South 411 473 38,000  Level FlightAware ADS-B
Tue 03:17:37 PM 35.1233 -84.0838 191° South 408 470 38,000  Level FlightAware ADS-B
Tue 03:18:07 PM 35.0671 -84.0973 191° South 407 468 38,000  Level FlightAware ADS-B
Tue 03:18:38 PM 35.0108 -84.1108 191° South 406 467 38,000  Level FlightAware ADS-B
Tue 03:19:09 PM 34.9528 -84.1246 191° South 405 466 38,000  Level FlightAware ADS-B
Tue 03:19:40 PM 34.8968 -84.1380 191° South 405 466 38,000  Level FlightAware ADS-B
Tue 03:20:10 PM 34.8404 -84.1514 191° South 405 466 38,000  Level FlightAware ADS-B
Tue 03:20:41 PM 34.7835 -84.1650 191° South 406 467 38,000  Level FlightAware ADS-B
Tue 03:21:12 PM 34.7271 -84.1783 191° South 408 470 38,000  Level FlightAware ADS-B
Tue 03:21:43 PM 34.6691 -84.1920 191° South 407 468 38,000  Level FlightAware ADS-B
Tue 03:22:23 PM 34.5962 -84.2093 191° South 408 470 38,000  Level FlightAware ADS-B
Tue 03:22:54 PM 34.5379 -84.2229 191° South 406 467 38,000  Level FlightAware ADS-B
Tue 03:23:25 PM 34.4822 -84.2361 191° South 405 466 38,000  Level FlightAware ADS-B
Tue 03:23:56 PM 34.4247 -84.2497 191° South 404 465 38,000  Level FlightAware ADS-B
Tue 03:24:29 PM 34.3648 -84.2639 191° South 405 466 38,000  Level FlightAware ADS-B
Tue 03:24:59 PM 34.3078 -84.2772 191° South 405 466 38,000  Level FlightAware ADS-B
Tue 03:25:30 PM 34.2521 -84.2903 191° South 404 465 38,000  Level FlightAware ADS-B
Tue 03:26:26 PM 34.1520 -84.3140 191° South 404 465 38,000  Level FlightAware ADS-B
Tue 03:27:22 PM 34.0490 -84.3380 191° South 410 472 38,000  Level FlightAware ADS-B
Tue 03:27:53 PM 33.9874 -84.3521 191° South 413 475 38,000  Level FlightAware ADS-B
Tue 03:28:25 PM 33.9275 -84.3660 191° South 411 473 38,000  Level FlightAware ADS-B
Tue 03:28:56 PM 33.8701 -84.3793 191° South 410 472 38,000  Level FlightAware ADS-B
Tue 03:29:27 PM 33.8117 -84.3930 191° South 411 473 38,000  Level FlightAware ADS-B
Tue 03:30:05 PM 33.7403 -84.4096 191° South 407 468 38,000  Level FlightAware ADS-B
Tue 03:30:37 PM 33.6819 -84.4230 191° South 406 467 38,000  Level FlightAware ADS-B
Tue 03:31:10 PM 33.6189 -84.4327 187° South 419 482 38,000  Level FlightAware ADS-B
Tue 03:31:40 PM 33.5595 -84.4333 180° South 428 493 38,000  Level FlightAware ADS-B
Tue 03:32:13 PM 33.4950 -84.4320 179° South 426 490 38,000  Level FlightAware ADS-B
Tue 03:32:59 PM 33.4070 -84.4306 179° South 424 488 38,000  Level FlightAware ADS-B
Tue 03:33:30 PM 33.3442 -84.4294 179° South 421 484 38,000  Level FlightAware ADS-B
Tue 03:34:16 PM 33.2558 -84.4276 179° South 421 484 38,000 -102 Level FlightAware ADS-B
Tue 03:35:28 PM 33.1170 -84.4250 179° South 425 489 37,800 -432 Descending FlightAware ADS-B
Tue 03:36:21 PM 33.0110 -84.4230 179° South 421 484 37,100 -436 Descending FlightAware ADS-B
Tue 03:37:18 PM 32.9020 -84.4200 179° South 415 478 37,000 -67 Descending FlightAware ADS-B
Tue 03:37:50 PM 32.8390 -84.4190 179° South 415 478 37,000  Level FlightAware ADS-B
Tue 03:38:25 PM 32.7740 -84.4180 179° South 416 479 37,000  Level FlightAware ADS-B
Tue 03:39:12 PM 32.6820 -84.4160 179° South 415 478 37,000  Level FlightAware ADS-B
Tue 03:39:48 PM 32.6120 -84.4140 179° South 414 476 37,000  Level FlightAware ADS-B
Tue 03:40:47 PM 32.5030 -84.4120 179° South 412 474 37,000  Level FlightAware ADS-B
Tue 03:41:45 PM 32.3890 -84.4100 179° South 411 473 37,000  Level FlightAware ADS-B
Tue 03:42:22 PM 32.3200 -84.4090 179° South 409 471 37,000  Level FlightAware ADS-B
Tue 03:42:48 PM 32.2730 -84.4080 179° South 409 471 37,000  Level FlightAware ADS-B
Tue 03:43:27 PM 32.2100 -84.4060 178° South 409 471 37,000  Level FlightAware ADS-B
Tue 03:44:20 PM 32.0960 -84.4040 179° South 409 471 37,000  Level FlightAware ADS-B
Tue 03:44:43 PM 32.0550 -84.4030 179° South 408 470 37,000  Level FlightAware ADS-B
Tue 03:45:17 PM 31.9880 -84.4020 179° South 409 471 37,000  Level FlightAware ADS-B
Tue 03:46:22 PM 31.8650 -84.3930 176° South 438 504 37,000  Level FlightAware ADS-B
Tue 03:47:01 PM 31.7890 -84.3560 158° South 462 532 37,000  Level FlightAware ADS-B
Tue 03:47:30 PM 31.7320 -84.3250 155° Southeast 463 533 37,000  Level FlightAware ADS-B
Tue 03:48:02 PM 31.6700 -84.2930 156° South 461 531 37,000  Level FlightAware ADS-B
Tue 03:49:05 PM 31.5450 -84.2280 156° South 458 527 37,000  Level FlightAware ADS-B
Tue 03:49:59 PM 31.4450 -84.1760 156° South 456 525 37,000  Level FlightAware ADS-B
Tue 03:50:27 PM 31.3900 -84.1470 156° South 455 524 37,000  Level FlightAware ADS-B
Tue 03:51:08 PM 31.3080 -84.1050 156° South 456 525 37,000  Level FlightAware ADS-B
Tue 03:52:13 PM 31.1850 -84.0410 156° South 457 526 37,000  Level FlightAware ADS-B
Tue 03:53:01 PM 31.0903 -83.9926 156° South 458 527 37,000  Level FlightAware ADS-B (KONZ)
Tue 03:53:53 PM 30.9923 -83.9427 156° South 455 524 37,000  Level FlightAware ADS-B (KONZ)
Tue 03:54:31 PM 30.9162 -83.9039 156° South 454 522 37,000  Level FlightAware ADS-B (KONZ)
Tue 03:55:15 PM 30.8336 -83.8620 156° South 453 521 37,000  Level FlightAware ADS-B (KONZ)
Tue 03:56:03 PM 30.7382 -83.8136 156° South 455 524 37,000  Level FlightAware ADS-B (KONZ)
Tue 03:56:34 PM 30.6801 -83.7841 156° South 455 524 37,000  Level FlightAware ADS-B (KONZ)
Tue 03:57:04 PM 30.6281 -83.7578 157° South 456 525 37,000  Level FlightAware ADS-B (KONZ)
Tue 03:57:44 PM 30.5430 -83.7150 157° South 457 526 37,000  Level FlightAware ADS-B (KONZ)
Tue 03:58:15 PM 30.4917 -83.6891 157° South 457 526 37,000  Level FlightAware ADS-B (KONZ)
Tue 03:58:45 PM 30.4249 -83.6555 157° South 458 527 37,000  Level FlightAware ADS-B (KONZ)
Tue 03:59:33 PM 30.3346 -83.6101 157° South 460 529 37,000  Level FlightAware ADS-B (KONZ)
Tue 04:00:08 PM 30.2644 -83.5749 157° South 459 528 37,000  Level FlightAware ADS-B (KONZ)
Tue 04:00:42 PM 30.1970 -83.5410 156° South 460 529 37,000  Level FlightAware ADS-B
Tue 04:01:37 PM 30.0910 -83.4880 157° South 461 531 37,000  Level FlightAware ADS-B
Tue 04:02:34 PM 29.9790 -83.4320 157° South 460 529 37,000  Level FlightAware ADS-B
Tue 04:03:30 PM 29.8680 -83.3770 157° South 461 531 37,000  Level FlightAware ADS-B
Tue 04:04:09 PM 29.7920 -83.3400 157° South 461 531 37,000  Level FlightAware ADS-B
Tue 04:05:04 PM 29.6870 -83.2870 156° South 461 531 37,000  Level FlightAware ADS-B
Tue 04:05:57 PM 29.5820 -83.2350 157° South 461 531 37,000  Level FlightAware ADS-B
Tue 04:06:24 PM 29.5290 -83.2090 157° South 461 531 37,000  Level FlightAware ADS-B
Tue 04:07:06 PM 29.4420 -83.1670 157° South 461 531 37,000  Level FlightAware ADS-B
Tue 04:07:40 PM 29.3760 -83.1340 156° South 460 529 37,000  Level FlightAware ADS-B
Tue 04:08:44 PM 29.2520 -83.0730 157° South 461 531 37,000  Level FlightAware ADS-B
Tue 04:09:14 PM 29.1930 -83.0440 157° South 462 532 37,000  Level FlightAware ADS-B
Tue 04:10:03 PM 29.0970 -82.9970 157° South 461 531 37,000  Level FlightAware ADS-B
Tue 04:10:53 PM 28.9990 -82.9490 157° South 461 531 37,000  Level FlightAware ADS-B
Tue 04:12:00 PM 28.8660 -82.8850 157° South 463 533 37,000  Level FlightAware ADS-B
Tue 04:12:54 PM 28.7583 -82.8325 157° South 463 533 37,000  Level FlightAware ADS-B
Tue 04:13:30 PM 28.6897 -82.7993 157° South 465 535 37,000  Level FlightAware ADS-B
Tue 04:14:11 PM 28.6080 -82.7600 157° South 466 536 37,000  Level FlightAware ADS-B
Tue 04:15:07 PM 28.4950 -82.7050 157° South 467 537 37,000  Level FlightAware ADS-B
Tue 04:16:01 PM 28.3870 -82.6530 157° South 468 539 37,000  Level FlightAware ADS-B
Tue 04:16:44 PM 28.3080 -82.6150 157° South 468 539 37,000  Level FlightAware ADS-B
Tue 04:17:43 PM 28.1850 -82.5560 157° South 470 541 37,000  Level FlightAware ADS-B
Tue 04:18:11 PM 28.1290 -82.5290 157° South 470 541 37,000  Level FlightAware ADS-B
Tue 04:19:12 PM 28.0060 -82.4700 157° South 470 541 37,000  Level FlightAware ADS-B
Tue 04:19:47 PM 27.9748 -82.4554 158° South 471 542 37,000  Level FlightAware ADS-B
Tue 04:20:34 PM 27.8420 -82.3920 157° South 471 542 37,000  Level FlightAware ADS-B
Tue 04:21:20 PM 27.7510 -82.3490 157° South 468 539 37,000  Level FlightAware ADS-B
Tue 04:22:00 PM 27.6670 -82.3140 160° South 466 536 37,000  Level FlightAware ADS-B
Tue 04:22:44 PM 27.5800 -82.2780 160° South 466 536 37,000  Level FlightAware ADS-B
Tue 04:23:48 PM 27.4490 -82.2220 159° South 463 533 37,000  Level FlightAware ADS-B
Tue 04:24:32 PM 27.3600 -82.1980 167° South 438 504 37,000  Level FlightAware ADS-B
Tue 04:25:38 PM 27.2270 -82.2100 185° South 437 503 37,000  Level FlightAware ADS-B
Tue 04:26:31 PM 27.1190 -82.2210 185° South 439 505 37,000  Level FlightAware ADS-B
Tue 04:26:54 PM 27.0730 -82.2250 184° South 439 505 37,000  Level FlightAware ADS-B
Tue 04:28:04 PM 26.9300 -82.2390 185° South 440 506 37,000  Level FlightAware ADS-B
Tue 04:28:36 PM 26.8650 -82.2460 185° South 441 507 37,000  Level FlightAware ADS-B
Tue 04:29:35 PM 26.7440 -82.2580 185° South 445 512 37,000  Level FlightAware ADS-B
Tue 04:30:33 PM 26.6240 -82.2690 185° South 445 512 37,000  Level FlightAware ADS-B
Tue 04:31:13 PM 26.5440 -82.2770 185° South 444 511 37,000  Level FlightAware ADS-B
Tue 04:32:09 PM 26.4290 -82.2880 185° South 443 510 37,000  Level FlightAware ADS-B
Tue 04:32:28 PM 26.3890 -82.2920 185° South 443 510 37,000  Level FlightAware ADS-B
Tue 04:33:25 PM 26.2720 -82.3030 185° South 445 512 37,000  Level FlightAware ADS-B
Tue 04:34:27 PM 26.1440 -82.3160 185° South 444 511 37,000  Level FlightAware ADS-B
Tue 04:35:15 PM 26.0470 -82.3250 185° South 443 510 37,000  Level FlightAware ADS-B
Tue 04:36:07 PM 25.9400 -82.3350 185° South 443 510 37,000  Level FlightAware ADS-B
Tue 04:36:58 PM 25.8330 -82.3460 185° South 445 512 37,000  Level FlightAware ADS-B
Tue 04:37:51 PM 25.7250 -82.3560 185° South 445 512 37,000  Level FlightAware ADS-B
Tue 04:38:40 PM 25.6250 -82.3660 185° South 444 511 37,000  Level FlightAware ADS-B
Tue 04:39:08 PM 25.5670 -82.3710 184° South 444 511 37,000  Level FlightAware ADS-B
Tue 04:39:59 PM 25.4630 -82.3810 185° South 444 511 37,000  Level FlightAware ADS-B
Tue 04:40:40 PM 25.3790 -82.3890 185° South 445 512 37,000  Level FlightAware ADS-B
Tue 04:41:02 PM 25.3340 -82.3930 185° South 446 513 37,000  Level FlightAware ADS-B
Tue 04:41:47 PM 25.2400 -82.4020 185° South 447 514 37,000  Level FlightAware ADS-B
Tue 04:42:28 PM 25.1560 -82.4100 185° South 447 514 37,000  Level FlightAware ADS-B
Tue 04:42:48 PM 25.1150 -82.4140 185° South 448 516 37,000  Level FlightAware ADS-B
Tue 04:43:21 PM 25.0470 -82.4210 185° South 447 514 37,000  Level FlightAware ADS-B
Tue 04:43:57 PM 24.9730 -82.4280 185° South 446 513 37,000 -894 Level FlightAware ADS-B
Tue 04:44:55 PM 24.8510 -82.4390 185° South 457 526 35,600 -1,774 Descending FlightAware ADS-B
Tue 04:45:52 PM 24.7350 -82.4500 185° South 456 525 33,600 -2,039 Descending FlightAware ADS-B
Tue 04:46:38 PM 24.6360 -82.4590 185° South 450 518 32,100 -1,810 Descending FlightAware ADS-B
Tue 04:46:55 PM 24.6050 -82.4620 185° South 439 505 31,700 -1,125 Descending FlightAware ADS-B
Tue 04:47:58 PM 24.4900 -82.4730 185° South 437 503 30,600 -532 Descending FlightAware ADS-B
Tue 04:48:59 PM 24.3860 -82.4830 185° South 437 503 30,600  Level FlightAware ADS-B
Tue 04:49:47 PM 24.3040 -82.4910 185° South 437 503 30,600  Level FlightAware ADS-B
Tue 04:50:59 PM 24.1800 -82.5030 185° South 437 503 30,600  Level FlightAware ADS-B
Tue 04:51:48 PM 24.0970 -82.5110 185° South 437 503 30,600  Level FlightAware ADS-B
Tue 04:52:49 PM 23.9920 -82.5210 185° South 437 503 30,600  Level FlightAware ADS-B
Tue 04:53:37 PM 23.9100 -82.5290 185° South 437 503 30,600  Level FlightAware ADS-B
Tue 04:54:01 PM 23.8690 -82.5330 185° South 437 503 30,600  Level FlightAware ADS-B
Tue 04:54:49 PM 23.7870 -82.5410 185° South 437 503 30,600  Level FlightAware ADS-B
Tue 04:55:13 PM 23.7460 -82.5450 185° South 437 503 30,600  Level FlightAware ADS-B
Tue 04:56:01 PM 23.6630 -82.5520 184° South 437 503 30,600  Level FlightAware ADS-B
Tue 04:56:51 PM 23.5780 -82.5610 186° South 437 503 30,600  Level FlightAware ADS-B
Tue 04:57:28 PM 23.5140 -82.5670 185° South 437 503 30,600  Level FlightAware ADS-B
Tue 05:00:00 PM 23.2217 -82.4789 175° South  Level Estimated
Tue 05:01:00 PM 23.1064 -82.4442 170° South  Level Estimated
Tue 05:02:00 PM 22.9894 -82.4000 180° South  Level FlightAware Approximate
Tue 05:03:00 PM 22.9891 -82.4091 180° South  Level Estimated
Tue 05:04:00 PM 22.9891 -82.4091 180° South  Level Estimated
Tue 05:05:00 PM 22.9891 -82.4091 180° South  Level Estimated
Tue 05:06:00 PM 22.9891 -82.4091 180° South  Level Estimated
Tue 05:07:00 PM 22.9891 -82.4091 180° South  Level Estimated
Tue 05:08:00 PM 22.9891 -82.4091 180° South  Level Estimated
Tue 05:09:00 PM 22.9891 -82.4091 180° South  Level Estimated
Tue 05:10:00 PM 22.9891 -82.4091 180° South  Level Estimated
Tue 05:11:00 PM 22.9891 -82.4091 180° South  Level Estimated
Tue 05:12:00 PM 22.9891 -82.4091 180° South  Level Estimated
Tue 05:13:00 PM 22.9891 -82.4091 180° South  Level Estimated
Tue 05:14:00 PM 22.9891 -82.4091 180° South  Level Estimated
Tue 05:15:00 PM 22.9891 -82.4091 180° South  Level Estimated
Tue 05:16:00 PM 22.9891 -82.4091 180° South  Level Estimated
Tue 05:17:00 PM 22.9891 -82.4091 180° South  Level Estimated
Tue 05:18:00 PM 22.9891 -82.4091 180° South  Level Estimated
Tue 05:19:00 PM 22.9891 -82.4091 180° South  Level Estimated
Tue 05:20:00 PM 22.9891 -82.4091 180° South  Level Estimated
Tue 05:21:00 PM 22.9891 -82.4091 180° South  Level Estimated
Tue 05:22:00 PM 22.9891 -82.4091 180° South  Level Estimated
Tue 05:23:00 PM 22.9891 -82.4091 180° South  Level Estimated

Login

Don't have an account? Register now (free) for customized features, flight alerts, and more!